<?xml version="1.0" encoding="UTF-8" standalone="no" ?>
<gpx xmlns="http://www.topografix.com/GPX/1/1" xmlns:xsi="http://www.w3.org/2001/XMLSchema-instance" xsi:schemaLocation="http://www.topografix.com/GPX/1/1 http://www.topografix.com/GPX/1/1/gpx.xsd" version="1.1" creator="VisuGPX - https://www.visugpx.com">
  <metadata>
    <name>A1 Rando des 3 Monts 20km VTT</name>
  </metadata>
  <wpt lat="50.38059" lon="2.70394">
    <ele>90.8</ele>
    <name><![CDATA[Nourriture]]></name>
    <type><![CDATA[FOOD]]></type>
  </wpt>
  <trk>
    <name><![CDATA[A1 Rando des 3 Monts 20km VTT_1]]></name>
    <extensions>
      <line xmlns="http://www.topografix.com/GPX/gpx_style/0/2">
        <color>0000FF</color>
        <width>4</width>
          <extensions>
            <sens>1</sens>
          </extensions>
      </line>
    </extensions>
    <trkseg>
      <trkpt lat="50.41036" lon="2.75208">
        <ele>73.8</ele>
        <time>2023-10-30T15:57:34.020Z</time>
      </trkpt>
      <trkpt lat="50.41011" lon="2.75189">
        <ele>74.6</ele>
        <time>2023-10-30T15:21:30.000Z</time>
        <extensions>
          <visugpx:TrkExtension xmlns:visugpx="https://www.visugpx.com/editgpx/">
            <visugpx:node>5</visugpx:node>
            </visugpx:TrkExtension>
        </extensions>
      </trkpt>
      <trkpt lat="50.40985" lon="2.75171">
        <ele>75</ele>
        <time>2023-10-30T15:21:30.007Z</time>
      </trkpt>
      <trkpt lat="50.4096" lon="2.75154">
        <ele>74.4</ele>
        <time>2023-10-30T15:21:30.020Z</time>
      </trkpt>
      <trkpt lat="50.40933" lon="2.75135">
        <ele>73</ele>
        <time>2023-10-30T15:21:30.041Z</time>
      </trkpt>
      <trkpt lat="50.40904" lon="2.75114">
        <ele>73</ele>
        <time>2023-10-30T15:21:30.070Z</time>
      </trkpt>
      <trkpt lat="50.40872" lon="2.75091">
        <ele>72.4</ele>
        <time>2023-10-30T15:21:30.107Z</time>
      </trkpt>
      <trkpt lat="50.40832" lon="2.75057">
        <ele>70.2</ele>
        <time>2023-10-30T15:21:30.155Z</time>
      </trkpt>
      <trkpt lat="50.40822" lon="2.7505">
        <ele>70.4</ele>
        <time>2023-10-30T15:21:30.206Z</time>
      </trkpt>
      <trkpt lat="50.40808" lon="2.7504">
        <ele>70.8</ele>
        <time>2023-10-30T15:21:30.261Z</time>
      </trkpt>
      <trkpt lat="50.40785" lon="2.75016">
        <ele>71.6</ele>
        <time>2023-10-30T15:21:30.322Z</time>
      </trkpt>
      <trkpt lat="50.40763" lon="2.74989">
        <ele>71.8</ele>
        <time>2023-10-30T15:21:30.390Z</time>
      </trkpt>
      <trkpt lat="50.40741" lon="2.74951">
        <ele>70.6</ele>
        <time>2023-10-30T15:21:30.466Z</time>
      </trkpt>
      <trkpt lat="50.40723" lon="2.74911">
        <ele>69.2</ele>
        <time>2023-10-30T15:21:30.550Z</time>
      </trkpt>
      <trkpt lat="50.40707" lon="2.74878">
        <ele>70.4</ele>
        <time>2023-10-30T15:21:30.640Z</time>
      </trkpt>
      <trkpt lat="50.40685" lon="2.74837">
        <ele>72.2</ele>
        <time>2023-10-30T15:21:30.739Z</time>
      </trkpt>
      <trkpt lat="50.40659" lon="2.74796">
        <ele>74.2</ele>
        <time>2023-10-30T15:21:30.847Z</time>
      </trkpt>
      <trkpt lat="50.40628" lon="2.74747">
        <ele>75.6</ele>
        <time>2023-10-30T15:21:30.965Z</time>
      </trkpt>
      <trkpt lat="50.406" lon="2.74706">
        <ele>76.6</ele>
        <time>2023-10-30T15:21:31.093Z</time>
      </trkpt>
      <trkpt lat="50.40581" lon="2.7468">
        <ele>76</ele>
        <time>2023-10-30T15:21:31.227Z</time>
      </trkpt>
      <trkpt lat="50.40576" lon="2.74672">
        <ele>76</ele>
        <time>2023-10-30T15:21:31.363Z</time>
      </trkpt>
      <trkpt lat="50.4056" lon="2.74649">
        <ele>76</ele>
        <time>2023-10-30T15:21:31.504Z</time>
      </trkpt>
      <trkpt lat="50.40537" lon="2.74618">
        <ele>77</ele>
        <time>2023-10-30T15:21:31.652Z</time>
      </trkpt>
      <trkpt lat="50.40525" lon="2.746">
        <ele>77</ele>
        <time>2023-10-30T15:21:31.804Z</time>
      </trkpt>
      <trkpt lat="50.40514" lon="2.74581">
        <ele>77</ele>
        <time>2023-10-30T15:21:31.961Z</time>
      </trkpt>
      <trkpt lat="50.40507" lon="2.74565">
        <ele>77</ele>
        <time>2023-10-30T15:21:32.121Z</time>
      </trkpt>
      <trkpt lat="50.40506" lon="2.7456">
        <ele>77</ele>
        <time>2023-10-30T15:21:32.281Z</time>
      </trkpt>
      <trkpt lat="50.40501" lon="2.74549">
        <ele>77.4</ele>
        <time>2023-10-30T15:21:32.443Z</time>
      </trkpt>
      <trkpt lat="50.40484" lon="2.74551">
        <ele>77.8</ele>
        <time>2023-10-30T15:21:32.610Z</time>
      </trkpt>
      <trkpt lat="50.40467" lon="2.74551">
        <ele>78.6</ele>
        <time>2023-10-30T15:21:32.781Z</time>
      </trkpt>
      <trkpt lat="50.40441" lon="2.7455">
        <ele>78.8</ele>
        <time>2023-10-30T15:21:32.958Z</time>
      </trkpt>
      <trkpt lat="50.40407" lon="2.7455">
        <ele>79.8</ele>
        <time>2023-10-30T15:21:33.143Z</time>
      </trkpt>
      <trkpt lat="50.40398" lon="2.74552">
        <ele>79.8</ele>
        <time>2023-10-30T15:21:33.331Z</time>
      </trkpt>
      <trkpt lat="50.40386" lon="2.74563">
        <ele>79</ele>
        <time>2023-10-30T15:21:33.522Z</time>
      </trkpt>
      <trkpt lat="50.40366" lon="2.74592">
        <ele>78</ele>
        <time>2023-10-30T15:21:33.720Z</time>
      </trkpt>
      <trkpt lat="50.40346" lon="2.7462">
        <ele>79</ele>
        <time>2023-10-30T15:21:33.924Z</time>
      </trkpt>
      <trkpt lat="50.40321" lon="2.74649">
        <ele>81</ele>
        <time>2023-10-30T15:21:34.136Z</time>
      </trkpt>
      <trkpt lat="50.40296" lon="2.74685">
        <ele>81.6</ele>
        <time>2023-10-30T15:21:34.356Z</time>
      </trkpt>
      <trkpt lat="50.40276" lon="2.74714">
        <ele>81.6</ele>
        <time>2023-10-30T15:21:34.583Z</time>
      </trkpt>
      <trkpt lat="50.40255" lon="2.74746">
        <ele>80.6</ele>
        <time>2023-10-30T15:21:34.817Z</time>
      </trkpt>
      <trkpt lat="50.40226" lon="2.74791">
        <ele>80.2</ele>
        <time>2023-10-30T15:21:35.061Z</time>
      </trkpt>
      <trkpt lat="50.40195" lon="2.74837">
        <ele>81.8</ele>
        <time>2023-10-30T15:21:35.315Z</time>
      </trkpt>
      <trkpt lat="50.40164" lon="2.74883">
        <ele>84</ele>
        <time>2023-10-30T15:21:35.580Z</time>
      </trkpt>
      <trkpt lat="50.40126" lon="2.7494">
        <ele>84.6</ele>
        <time>2023-10-30T15:21:35.858Z</time>
      </trkpt>
      <trkpt lat="50.40092" lon="2.7499">
        <ele>86.2</ele>
        <time>2023-10-30T15:21:36.147Z</time>
      </trkpt>
      <trkpt lat="50.4005" lon="2.7505">
        <ele>86.2</ele>
        <time>2023-10-30T15:21:36.450Z</time>
      </trkpt>
      <trkpt lat="50.40007" lon="2.75114">
        <ele>82.6</ele>
        <time>2023-10-30T15:21:36.767Z</time>
      </trkpt>
      <trkpt lat="50.40002" lon="2.75123">
        <ele>81.6</ele>
        <time>2023-10-30T15:21:37.086Z</time>
      </trkpt>
      <trkpt lat="50.39975" lon="2.75172">
        <ele>76.8</ele>
        <time>2023-10-30T15:21:37.415Z</time>
      </trkpt>
      <trkpt lat="50.39953" lon="2.75209">
        <ele>75</ele>
        <time>2023-10-30T15:21:37.752Z</time>
      </trkpt>
      <trkpt lat="50.3993" lon="2.75249">
        <ele>73</ele>
        <time>2023-10-30T15:21:38.098Z</time>
      </trkpt>
      <trkpt lat="50.39922" lon="2.75264">
        <ele>72.4</ele>
        <time>2023-10-30T15:21:38.447Z</time>
      </trkpt>
      <trkpt lat="50.39915" lon="2.75271">
        <ele>72</ele>
        <time>2023-10-30T15:21:38.798Z</time>
      </trkpt>
      <trkpt lat="50.39911" lon="2.75265">
        <ele>72.6</ele>
        <time>2023-10-30T15:21:39.150Z</time>
      </trkpt>
      <trkpt lat="50.39903" lon="2.75264">
        <ele>73.2</ele>
        <time>2023-10-30T15:21:39.504Z</time>
      </trkpt>
      <trkpt lat="50.399" lon="2.75269">
        <ele>73.2</ele>
        <time>2023-10-30T15:21:39.859Z</time>
      </trkpt>
      <trkpt lat="50.39893" lon="2.75277">
        <ele>73</ele>
        <time>2023-10-30T15:21:40.216Z</time>
      </trkpt>
      <trkpt lat="50.39883" lon="2.75291">
        <ele>73</ele>
        <time>2023-10-30T15:21:40.576Z</time>
      </trkpt>
      <trkpt lat="50.39854" lon="2.75317">
        <ele>73.8</ele>
        <time>2023-10-30T15:21:40.945Z</time>
      </trkpt>
      <trkpt lat="50.39842" lon="2.75328">
        <ele>73.4</ele>
        <time>2023-10-30T15:21:41.317Z</time>
      </trkpt>
      <trkpt lat="50.39835" lon="2.75336">
        <ele>73.2</ele>
        <time>2023-10-30T15:21:41.691Z</time>
      </trkpt>
      <trkpt lat="50.3981" lon="2.75361">
        <ele>72.2</ele>
        <time>2023-10-30T15:21:42.072Z</time>
      </trkpt>
      <trkpt lat="50.39781" lon="2.75391">
        <ele>72.4</ele>
        <time>2023-10-30T15:21:42.462Z</time>
      </trkpt>
      <trkpt lat="50.39773" lon="2.75398">
        <ele>72.2</ele>
        <time>2023-10-30T15:21:42.854Z</time>
      </trkpt>
      <trkpt lat="50.39767" lon="2.75406">
        <ele>72.8</ele>
        <time>2023-10-30T15:21:43.248Z</time>
      </trkpt>
      <trkpt lat="50.39769" lon="2.75421">
        <ele>71</ele>
        <time>2023-10-30T15:21:43.644Z</time>
      </trkpt>
      <trkpt lat="50.39772" lon="2.75427">
        <ele>70.2</ele>
        <time>2023-10-30T15:21:44.041Z</time>
      </trkpt>
      <trkpt lat="50.39793" lon="2.75464">
        <ele>67.4</ele>
        <time>2023-10-30T15:21:44.446Z</time>
      </trkpt>
      <trkpt lat="50.39813" lon="2.755">
        <ele>67.4</ele>
        <time>2023-10-30T15:21:44.859Z</time>
      </trkpt>
      <trkpt lat="50.3984" lon="2.7555">
        <ele>67.2</ele>
        <time>2023-10-30T15:21:45.282Z</time>
      </trkpt>
      <trkpt lat="50.39851" lon="2.75567">
        <ele>67.2</ele>
        <time>2023-10-30T15:21:45.709Z</time>
      </trkpt>
      <trkpt lat="50.39854" lon="2.75583">
        <ele>67.2</ele>
        <time>2023-10-30T15:21:46.138Z</time>
      </trkpt>
      <trkpt lat="50.3987" lon="2.7561">
        <ele>68</ele>
        <time>2023-10-30T15:21:46.573Z</time>
      </trkpt>
      <trkpt lat="50.39894" lon="2.75648">
        <ele>68</ele>
        <time>2023-10-30T15:21:47.016Z</time>
      </trkpt>
      <trkpt lat="50.39923" lon="2.75692">
        <ele>68.4</ele>
        <time>2023-10-30T15:21:47.469Z</time>
      </trkpt>
      <trkpt lat="50.39947" lon="2.75735">
        <ele>68</ele>
        <time>2023-10-30T15:21:47.931Z</time>
      </trkpt>
      <trkpt lat="50.3995" lon="2.75741">
        <ele>68</ele>
        <time>2023-10-30T15:21:48.394Z</time>
      </trkpt>
      <trkpt lat="50.39961" lon="2.75758">
        <ele>68.4</ele>
        <time>2023-10-30T15:21:48.861Z</time>
      </trkpt>
      <trkpt lat="50.39985" lon="2.75797">
        <ele>67.8</ele>
        <time>2023-10-30T15:21:49.336Z</time>
      </trkpt>
      <trkpt lat="50.40015" lon="2.7585">
        <ele>67.8</ele>
        <time>2023-10-30T15:21:49.822Z</time>
      </trkpt>
      <trkpt lat="50.40053" lon="2.75909">
        <ele>67</ele>
        <time>2023-10-30T15:21:50.322Z</time>
      </trkpt>
      <trkpt lat="50.40087" lon="2.75941">
        <ele>66.8</ele>
        <time>2023-10-30T15:21:50.831Z</time>
      </trkpt>
      <trkpt lat="50.40121" lon="2.75968">
        <ele>66.8</ele>
        <time>2023-10-30T15:21:51.350Z</time>
      </trkpt>
      <trkpt lat="50.40126" lon="2.75974">
        <ele>67</ele>
        <time>2023-10-30T15:21:51.870Z</time>
      </trkpt>
      <trkpt lat="50.40157" lon="2.76021">
        <ele>66.6</ele>
        <time>2023-10-30T15:21:52.400Z</time>
      </trkpt>
      <trkpt lat="50.40192" lon="2.76074">
        <ele>65.6</ele>
        <time>2023-10-30T15:21:52.942Z</time>
      </trkpt>
      <trkpt lat="50.40234" lon="2.76134">
        <ele>65.6</ele>
        <time>2023-10-30T15:21:53.498Z</time>
      </trkpt>
      <trkpt lat="50.40239" lon="2.76141">
        <ele>65.4</ele>
        <time>2023-10-30T15:21:54.056Z</time>
      </trkpt>
      <trkpt lat="50.40263" lon="2.76176">
        <ele>63.4</ele>
        <time>2023-10-30T15:21:54.622Z</time>
      </trkpt>
      <trkpt lat="50.40268" lon="2.76182">
        <ele>63.4</ele>
        <time>2023-10-30T15:21:55.190Z</time>
      </trkpt>
      <trkpt lat="50.40309" lon="2.76232">
        <ele>65.6</ele>
        <time>2023-10-30T15:21:55.770Z</time>
      </trkpt>
      <trkpt lat="50.40349" lon="2.76274">
        <ele>63.2</ele>
        <time>2023-10-30T15:21:56.362Z</time>
      </trkpt>
      <trkpt lat="50.4038" lon="2.76322">
        <ele>64.2</ele>
        <time>2023-10-30T15:21:56.965Z</time>
      </trkpt>
      <trkpt lat="50.40384" lon="2.76329">
        <ele>64.4</ele>
        <time>2023-10-30T15:21:57.569Z</time>
      </trkpt>
      <trkpt lat="50.40391" lon="2.76363">
        <ele>65.2</ele>
        <time>2023-10-30T15:21:58.179Z</time>
      </trkpt>
      <trkpt lat="50.40402" lon="2.76416">
        <ele>63.6</ele>
        <time>2023-10-30T15:21:58.797Z</time>
      </trkpt>
      <trkpt lat="50.40411" lon="2.76456">
        <ele>62.6</ele>
        <time>2023-10-30T15:21:59.422Z</time>
      </trkpt>
      <trkpt lat="50.40415" lon="2.76475">
        <ele>62.8</ele>
        <time>2023-10-30T15:22:00.050Z</time>
      </trkpt>
      <trkpt lat="50.40417" lon="2.76481">
        <ele>62.8</ele>
        <time>2023-10-30T15:22:00.679Z</time>
      </trkpt>
      <trkpt lat="50.40422" lon="2.76507">
        <ele>62.8</ele>
        <time>2023-10-30T15:22:01.312Z</time>
      </trkpt>
      <trkpt lat="50.40426" lon="2.76526">
        <ele>63</ele>
        <time>2023-10-30T15:22:01.949Z</time>
      </trkpt>
      <trkpt lat="50.4043" lon="2.76538">
        <ele>63.4</ele>
        <time>2023-10-30T15:22:02.588Z</time>
      </trkpt>
      <trkpt lat="50.40432" lon="2.76544">
        <ele>63.8</ele>
        <time>2023-10-30T15:22:03.228Z</time>
      </trkpt>
      <trkpt lat="50.40434" lon="2.76551">
        <ele>64</ele>
        <time>2023-10-30T15:22:03.869Z</time>
      </trkpt>
      <trkpt lat="50.4044" lon="2.76571">
        <ele>65.2</ele>
        <time>2023-10-30T15:22:04.513Z</time>
      </trkpt>
      <trkpt lat="50.40454" lon="2.76618">
        <ele>67.6</ele>
        <time>2023-10-30T15:22:05.165Z</time>
      </trkpt>
      <trkpt lat="50.40456" lon="2.76625">
        <ele>67.8</ele>
        <time>2023-10-30T15:22:05.819Z</time>
      </trkpt>
      <trkpt lat="50.40466" lon="2.7666">
        <ele>67.4</ele>
        <time>2023-10-30T15:22:06.479Z</time>
      </trkpt>
      <trkpt lat="50.4049" lon="2.76723">
        <ele>64.8</ele>
        <time>2023-10-30T15:22:07.150Z</time>
      </trkpt>
      <trkpt lat="50.40507" lon="2.76777">
        <ele>63.4</ele>
        <time>2023-10-30T15:22:07.830Z</time>
      </trkpt>
      <trkpt lat="50.40517" lon="2.76801">
        <ele>63.4</ele>
        <time>2023-10-30T15:22:08.515Z</time>
      </trkpt>
      <trkpt lat="50.40523" lon="2.76817">
        <ele>63</ele>
        <time>2023-10-30T15:22:09.203Z</time>
      </trkpt>
      <trkpt lat="50.4053" lon="2.76832">
        <ele>63</ele>
        <time>2023-10-30T15:22:09.894Z</time>
      </trkpt>
      <trkpt lat="50.40539" lon="2.7685">
        <ele>63.4</ele>
        <time>2023-10-30T15:22:10.588Z</time>
      </trkpt>
      <trkpt lat="50.40542" lon="2.76855">
        <ele>63.6</ele>
        <time>2023-10-30T15:22:11.283Z</time>
      </trkpt>
      <trkpt lat="50.40555" lon="2.76881">
        <ele>64.4</ele>
        <time>2023-10-30T15:22:11.983Z</time>
      </trkpt>
      <trkpt lat="50.40555" lon="2.76887">
        <ele>64.4</ele>
        <time>2023-10-30T15:22:12.684Z</time>
      </trkpt>
      <trkpt lat="50.40555" lon="2.76888">
        <ele>64.6</ele>
        <time>2023-10-30T15:22:13.385Z</time>
      </trkpt>
      <trkpt lat="50.40554" lon="2.76935">
        <ele>66</ele>
        <time>2023-10-30T15:22:14.094Z</time>
      </trkpt>
      <trkpt lat="50.40562" lon="2.76945">
        <ele>65.4</ele>
        <time>2023-10-30T15:22:14.806Z</time>
      </trkpt>
      <trkpt lat="50.40567" lon="2.76956">
        <ele>64.8</ele>
        <time>2023-10-30T15:22:15.520Z</time>
      </trkpt>
      <trkpt lat="50.4057" lon="2.76963">
        <ele>64.4</ele>
        <time>2023-10-30T15:22:16.235Z</time>
      </trkpt>
      <trkpt lat="50.40604" lon="2.76975">
        <ele>62.4</ele>
        <time>2023-10-30T15:22:16.958Z</time>
      </trkpt>
      <trkpt lat="50.40626" lon="2.77016">
        <ele>62</ele>
        <time>2023-10-30T15:22:17.690Z</time>
      </trkpt>
      <trkpt lat="50.40607" lon="2.77059">
        <ele>61.2</ele>
        <time>2023-10-30T15:22:18.430Z</time>
      </trkpt>
      <trkpt lat="50.40606" lon="2.77068">
        <ele>61.2</ele>
        <time>2023-10-30T15:22:19.171Z</time>
      </trkpt>
      <trkpt lat="50.40598" lon="2.77103">
        <ele>61</ele>
        <time>2023-10-30T15:22:19.918Z</time>
      </trkpt>
      <trkpt lat="50.40592" lon="2.77114">
        <ele>61</ele>
        <time>2023-10-30T15:22:20.667Z</time>
      </trkpt>
      <trkpt lat="50.40588" lon="2.77124">
        <ele>60.8</ele>
        <time>2023-10-30T15:22:21.418Z</time>
      </trkpt>
      <trkpt lat="50.40586" lon="2.77131">
        <ele>60.6</ele>
        <time>2023-10-30T15:22:22.171Z</time>
      </trkpt>
      <trkpt lat="50.40586" lon="2.77131">
        <ele>60.6</ele>
        <time>2023-10-30T15:22:22.924Z</time>
      </trkpt>
      <trkpt lat="50.40569" lon="2.77177">
        <ele>57</ele>
        <time>2023-10-30T15:22:23.685Z</time>
      </trkpt>
      <trkpt lat="50.40553" lon="2.77213">
        <ele>54</ele>
        <time>2023-10-30T15:22:24.453Z</time>
      </trkpt>
      <trkpt lat="50.4055" lon="2.77222">
        <ele>54</ele>
        <time>2023-10-30T15:22:25.222Z</time>
      </trkpt>
      <trkpt lat="50.4055" lon="2.77241">
        <ele>53.2</ele>
        <time>2023-10-30T15:22:25.994Z</time>
      </trkpt>
      <trkpt lat="50.40554" lon="2.77257">
        <ele>52</ele>
        <time>2023-10-30T15:22:26.769Z</time>
      </trkpt>
      <trkpt lat="50.40559" lon="2.77271">
        <ele>51.6</ele>
        <time>2023-10-30T15:22:27.546Z</time>
      </trkpt>
      <trkpt lat="50.40571" lon="2.77304">
        <ele>50.4</ele>
        <time>2023-10-30T15:22:28.329Z</time>
      </trkpt>
      <trkpt lat="50.40573" lon="2.77311">
        <ele>50.2</ele>
        <time>2023-10-30T15:22:29.113Z</time>
      </trkpt>
      <trkpt lat="50.40581" lon="2.77332">
        <ele>50</ele>
        <time>2023-10-30T15:22:29.901Z</time>
      </trkpt>
      <trkpt lat="50.40587" lon="2.77355">
        <ele>50.2</ele>
        <time>2023-10-30T15:22:30.693Z</time>
      </trkpt>
      <trkpt lat="50.40588" lon="2.77363">
        <ele>50.2</ele>
        <time>2023-10-30T15:22:31.486Z</time>
      </trkpt>
      <trkpt lat="50.4059" lon="2.77379">
        <ele>50.4</ele>
        <time>2023-10-30T15:22:32.282Z</time>
      </trkpt>
      <trkpt lat="50.4059" lon="2.77396">
        <ele>50.4</ele>
        <time>2023-10-30T15:22:33.081Z</time>
      </trkpt>
      <trkpt lat="50.40588" lon="2.77413">
        <ele>50.4</ele>
        <time>2023-10-30T15:22:33.882Z</time>
      </trkpt>
      <trkpt lat="50.40584" lon="2.7743">
        <ele>51</ele>
        <time>2023-10-30T15:22:34.686Z</time>
      </trkpt>
      <trkpt lat="50.40581" lon="2.77447">
        <ele>51.8</ele>
        <time>2023-10-30T15:22:35.493Z</time>
      </trkpt>
      <trkpt lat="50.40571" lon="2.77476">
        <ele>52.6</ele>
        <time>2023-10-30T15:22:36.305Z</time>
      </trkpt>
      <trkpt lat="50.40564" lon="2.77489">
        <ele>52.4</ele>
        <time>2023-10-30T15:22:37.120Z</time>
      </trkpt>
      <trkpt lat="50.40561" lon="2.77496">
        <ele>52.2</ele>
        <time>2023-10-30T15:22:37.936Z</time>
      </trkpt>
      <trkpt lat="50.40549" lon="2.77545">
        <ele>52.2</ele>
        <time>2023-10-30T15:22:38.760Z</time>
      </trkpt>
      <trkpt lat="50.40547" lon="2.77574">
        <ele>53.2</ele>
        <time>2023-10-30T15:22:39.589Z</time>
      </trkpt>
      <trkpt lat="50.40535" lon="2.77587">
        <ele>53.8</ele>
        <time>2023-10-30T15:22:40.421Z</time>
      </trkpt>
      <trkpt lat="50.40526" lon="2.77602">
        <ele>54.4</ele>
        <time>2023-10-30T15:22:41.257Z</time>
      </trkpt>
      <trkpt lat="50.40528" lon="2.77613">
        <ele>54.6</ele>
        <time>2023-10-30T15:22:42.094Z</time>
      </trkpt>
      <trkpt lat="50.40531" lon="2.77618">
        <ele>54.8</ele>
        <time>2023-10-30T15:22:42.932Z</time>
      </trkpt>
      <trkpt lat="50.40542" lon="2.77648">
        <ele>54.4</ele>
        <time>2023-10-30T15:22:43.776Z</time>
      </trkpt>
      <trkpt lat="50.40542" lon="2.77675">
        <ele>54.4</ele>
        <time>2023-10-30T15:22:44.624Z</time>
      </trkpt>
      <trkpt lat="50.40542" lon="2.77683">
        <ele>54.4</ele>
        <time>2023-10-30T15:22:45.473Z</time>
      </trkpt>
      <trkpt lat="50.40544" lon="2.77696">
        <ele>54.4</ele>
        <time>2023-10-30T15:22:46.324Z</time>
      </trkpt>
      <trkpt lat="50.40547" lon="2.77711">
        <ele>54.2</ele>
        <time>2023-10-30T15:22:47.178Z</time>
      </trkpt>
      <trkpt lat="50.4055" lon="2.77729">
        <ele>53.2</ele>
        <time>2023-10-30T15:22:48.034Z</time>
      </trkpt>
      <trkpt lat="50.40552" lon="2.77741">
        <ele>53</ele>
        <time>2023-10-30T15:22:48.892Z</time>
      </trkpt>
      <trkpt lat="50.40554" lon="2.77754">
        <ele>53</ele>
        <time>2023-10-30T15:22:49.753Z</time>
      </trkpt>
      <trkpt lat="50.40557" lon="2.77773">
        <ele>52.4</ele>
        <time>2023-10-30T15:22:50.617Z</time>
      </trkpt>
      <trkpt lat="50.4056" lon="2.77806">
        <ele>51.8</ele>
        <time>2023-10-30T15:22:51.486Z</time>
      </trkpt>
      <trkpt lat="50.40565" lon="2.7783">
        <ele>51.8</ele>
        <time>2023-10-30T15:22:52.359Z</time>
      </trkpt>
      <trkpt lat="50.40569" lon="2.77851">
        <ele>52.2</ele>
        <time>2023-10-30T15:22:53.235Z</time>
      </trkpt>
      <trkpt lat="50.40572" lon="2.77861">
        <ele>52.4</ele>
        <time>2023-10-30T15:22:54.113Z</time>
      </trkpt>
      <trkpt lat="50.40574" lon="2.77871">
        <ele>52.6</ele>
        <time>2023-10-30T15:22:54.993Z</time>
      </trkpt>
      <trkpt lat="50.40578" lon="2.77892">
        <ele>53</ele>
        <time>2023-10-30T15:22:55.876Z</time>
      </trkpt>
      <trkpt lat="50.4058" lon="2.77902">
        <ele>53</ele>
        <time>2023-10-30T15:22:56.761Z</time>
      </trkpt>
      <trkpt lat="50.40582" lon="2.77913">
        <ele>53</ele>
        <time>2023-10-30T15:22:57.647Z</time>
      </trkpt>
      <trkpt lat="50.40583" lon="2.7793">
        <ele>53</ele>
        <time>2023-10-30T15:22:58.536Z</time>
      </trkpt>
      <trkpt lat="50.40583" lon="2.77948">
        <ele>53.6</ele>
        <time>2023-10-30T15:22:59.428Z</time>
      </trkpt>
      <trkpt lat="50.40583" lon="2.77965">
        <ele>54.2</ele>
        <time>2023-10-30T15:23:00.322Z</time>
      </trkpt>
      <trkpt lat="50.40583" lon="2.77982">
        <ele>54.8</ele>
        <time>2023-10-30T15:23:01.219Z</time>
      </trkpt>
      <trkpt lat="50.40583" lon="2.77992">
        <ele>55.2</ele>
        <time>2023-10-30T15:23:02.118Z</time>
      </trkpt>
      <trkpt lat="50.40583" lon="2.77995">
        <ele>55.2</ele>
        <time>2023-10-30T15:23:03.017Z</time>
      </trkpt>
      <trkpt lat="50.40575" lon="2.77994">
        <ele>56</ele>
        <time>2023-10-30T15:23:03.918Z</time>
      </trkpt>
      <trkpt lat="50.40569" lon="2.77979">
        <ele>56.2</ele>
        <time>2023-10-30T15:23:04.822Z</time>
      </trkpt>
      <trkpt lat="50.40564" lon="2.77962">
        <ele>56.2</ele>
        <time>2023-10-30T15:23:05.729Z</time>
      </trkpt>
      <trkpt lat="50.4056" lon="2.77951">
        <ele>56.2</ele>
        <time>2023-10-30T15:23:06.638Z</time>
      </trkpt>
      <trkpt lat="50.40559" lon="2.77947">
        <ele>56.2</ele>
        <time>2023-10-30T15:23:07.547Z</time>
      </trkpt>
      <trkpt lat="50.40553" lon="2.77928">
        <ele>56.2</ele>
        <time>2023-10-30T15:23:08.460Z</time>
      </trkpt>
      <trkpt lat="50.40547" lon="2.77909">
        <ele>56.4</ele>
        <time>2023-10-30T15:23:09.376Z</time>
      </trkpt>
      <trkpt lat="50.4054" lon="2.77888">
        <ele>56.6</ele>
        <time>2023-10-30T15:23:10.296Z</time>
      </trkpt>
      <trkpt lat="50.40533" lon="2.77865">
        <ele>56.6</ele>
        <time>2023-10-30T15:23:11.220Z</time>
      </trkpt>
      <trkpt lat="50.4053" lon="2.77856">
        <ele>56.4</ele>
        <time>2023-10-30T15:23:12.145Z</time>
      </trkpt>
      <trkpt lat="50.40527" lon="2.77847">
        <ele>56.2</ele>
        <time>2023-10-30T15:23:13.072Z</time>
      </trkpt>
      <trkpt lat="50.40518" lon="2.7782">
        <ele>56</ele>
        <time>2023-10-30T15:23:14.004Z</time>
      </trkpt>
      <trkpt lat="50.40511" lon="2.77808">
        <ele>56.4</ele>
        <time>2023-10-30T15:23:14.938Z</time>
      </trkpt>
      <trkpt lat="50.40508" lon="2.7781">
        <ele>56.8</ele>
        <time>2023-10-30T15:23:15.873Z</time>
      </trkpt>
      <trkpt lat="50.40496" lon="2.77818">
        <ele>58.2</ele>
        <time>2023-10-30T15:23:16.811Z</time>
      </trkpt>
      <trkpt lat="50.40483" lon="2.77827">
        <ele>60</ele>
        <time>2023-10-30T15:23:17.752Z</time>
      </trkpt>
      <trkpt lat="50.40469" lon="2.7782">
        <ele>61.4</ele>
        <time>2023-10-30T15:23:18.697Z</time>
      </trkpt>
      <trkpt lat="50.40457" lon="2.77816">
        <ele>63</ele>
        <time>2023-10-30T15:23:19.645Z</time>
      </trkpt>
      <trkpt lat="50.40444" lon="2.77816">
        <ele>64.8</ele>
        <time>2023-10-30T15:23:20.596Z</time>
      </trkpt>
      <trkpt lat="50.40428" lon="2.77816">
        <ele>67.6</ele>
        <time>2023-10-30T15:23:21.551Z</time>
      </trkpt>
      <trkpt lat="50.40416" lon="2.77816">
        <ele>69.6</ele>
        <time>2023-10-30T15:23:22.509Z</time>
      </trkpt>
      <trkpt lat="50.40406" lon="2.77816">
        <ele>71.2</ele>
        <time>2023-10-30T15:23:23.470Z</time>
      </trkpt>
      <trkpt lat="50.40397" lon="2.77816">
        <ele>72.4</ele>
        <time>2023-10-30T15:23:24.433Z</time>
      </trkpt>
      <trkpt lat="50.40394" lon="2.77816">
        <ele>72.8</ele>
        <time>2023-10-30T15:23:25.396Z</time>
      </trkpt>
      <trkpt lat="50.40381" lon="2.77816">
        <ele>74.6</ele>
        <time>2023-10-30T15:23:26.363Z</time>
      </trkpt>
      <trkpt lat="50.40372" lon="2.77813">
        <ele>75.6</ele>
        <time>2023-10-30T15:23:27.332Z</time>
      </trkpt>
      <trkpt lat="50.40368" lon="2.77813">
        <ele>75.8</ele>
        <time>2023-10-30T15:23:28.302Z</time>
      </trkpt>
      <trkpt lat="50.40365" lon="2.77812">
        <ele>76.2</ele>
        <time>2023-10-30T15:23:29.273Z</time>
      </trkpt>
      <trkpt lat="50.40353" lon="2.77809">
        <ele>77.4</ele>
        <time>2023-10-30T15:23:30.247Z</time>
      </trkpt>
      <trkpt lat="50.40343" lon="2.77807">
        <ele>78.4</ele>
        <time>2023-10-30T15:23:31.223Z</time>
      </trkpt>
      <trkpt lat="50.40339" lon="2.77805">
        <ele>78.8</ele>
        <time>2023-10-30T15:23:32.200Z</time>
      </trkpt>
      <trkpt lat="50.40334" lon="2.77804">
        <ele>79.4</ele>
        <time>2023-10-30T15:23:33.178Z</time>
      </trkpt>
      <trkpt lat="50.40323" lon="2.778">
        <ele>80</ele>
        <time>2023-10-30T15:23:34.159Z</time>
      </trkpt>
      <trkpt lat="50.40315" lon="2.77797">
        <ele>80.6</ele>
        <time>2023-10-30T15:23:35.142Z</time>
      </trkpt>
      <trkpt lat="50.40302" lon="2.77793">
        <ele>80.8</ele>
        <time>2023-10-30T15:23:36.128Z</time>
      </trkpt>
      <trkpt lat="50.40297" lon="2.77791">
        <ele>81.4</ele>
        <time>2023-10-30T15:23:37.115Z</time>
      </trkpt>
      <trkpt lat="50.40292" lon="2.77789">
        <ele>82</ele>
        <time>2023-10-30T15:23:38.104Z</time>
      </trkpt>
      <trkpt lat="50.40281" lon="2.77787">
        <ele>83.2</ele>
        <time>2023-10-30T15:23:39.095Z</time>
      </trkpt>
      <trkpt lat="50.40274" lon="2.77785">
        <ele>84.2</ele>
        <time>2023-10-30T15:23:40.088Z</time>
      </trkpt>
      <trkpt lat="50.4027" lon="2.77784">
        <ele>84.4</ele>
        <time>2023-10-30T15:23:41.082Z</time>
      </trkpt>
      <trkpt lat="50.40265" lon="2.77783">
        <ele>84.8</ele>
        <time>2023-10-30T15:23:42.077Z</time>
      </trkpt>
      <trkpt lat="50.4026" lon="2.77781">
        <ele>85.4</ele>
        <time>2023-10-30T15:23:43.074Z</time>
      </trkpt>
      <trkpt lat="50.40245" lon="2.77778">
        <ele>86.6</ele>
        <time>2023-10-30T15:23:44.074Z</time>
      </trkpt>
      <trkpt lat="50.40225" lon="2.77776">
        <ele>87.2</ele>
        <time>2023-10-30T15:23:45.079Z</time>
      </trkpt>
      <trkpt lat="50.40213" lon="2.77775">
        <ele>87.4</ele>
        <time>2023-10-30T15:23:46.087Z</time>
      </trkpt>
      <trkpt lat="50.40186" lon="2.7779">
        <ele>84.6</ele>
        <time>2023-10-30T15:23:47.102Z</time>
      </trkpt>
      <trkpt lat="50.40168" lon="2.77786">
        <ele>85</ele>
        <time>2023-10-30T15:23:48.122Z</time>
      </trkpt>
      <trkpt lat="50.4015" lon="2.77783">
        <ele>84.2</ele>
        <time>2023-10-30T15:23:49.146Z</time>
      </trkpt>
      <trkpt lat="50.40128" lon="2.77779">
        <ele>82.4</ele>
        <time>2023-10-30T15:23:50.175Z</time>
      </trkpt>
      <trkpt lat="50.40106" lon="2.77775">
        <ele>81</ele>
        <time>2023-10-30T15:23:51.210Z</time>
      </trkpt>
      <trkpt lat="50.40089" lon="2.77772">
        <ele>80.8</ele>
        <time>2023-10-30T15:23:52.249Z</time>
      </trkpt>
      <trkpt lat="50.4007" lon="2.7776">
        <ele>81.8</ele>
        <time>2023-10-30T15:23:53.293Z</time>
      </trkpt>
      <trkpt lat="50.40055" lon="2.77748">
        <ele>83.6</ele>
        <time>2023-10-30T15:23:54.341Z</time>
      </trkpt>
      <trkpt lat="50.40038" lon="2.77734">
        <ele>84.8</ele>
        <time>2023-10-30T15:23:55.394Z</time>
      </trkpt>
      <trkpt lat="50.40035" lon="2.77731">
        <ele>85</ele>
        <time>2023-10-30T15:23:56.448Z</time>
      </trkpt>
      <trkpt lat="50.40016" lon="2.77714">
        <ele>87.4</ele>
        <time>2023-10-30T15:23:57.507Z</time>
      </trkpt>
      <trkpt lat="50.40013" lon="2.7771">
        <ele>87.8</ele>
        <time>2023-10-30T15:23:58.567Z</time>
      </trkpt>
      <trkpt lat="50.40003" lon="2.77701">
        <ele>89.2</ele>
        <time>2023-10-30T15:23:59.630Z</time>
      </trkpt>
      <trkpt lat="50.4" lon="2.77698">
        <ele>89.8</ele>
        <time>2023-10-30T15:24:00.694Z</time>
      </trkpt>
      <trkpt lat="50.39987" lon="2.77696">
        <ele>89</ele>
        <time>2023-10-30T15:24:01.761Z</time>
      </trkpt>
      <trkpt lat="50.39982" lon="2.77696">
        <ele>88.8</ele>
        <time>2023-10-30T15:24:02.829Z</time>
      </trkpt>
      <trkpt lat="50.39959" lon="2.77693">
        <ele>87.2</ele>
        <time>2023-10-30T15:24:03.903Z</time>
      </trkpt>
      <trkpt lat="50.39946" lon="2.77692">
        <ele>86</ele>
        <time>2023-10-30T15:24:04.980Z</time>
      </trkpt>
      <trkpt lat="50.39933" lon="2.77691">
        <ele>84.4</ele>
        <time>2023-10-30T15:24:06.060Z</time>
      </trkpt>
      <trkpt lat="50.39918" lon="2.77686">
        <ele>83</ele>
        <time>2023-10-30T15:24:07.144Z</time>
      </trkpt>
      <trkpt lat="50.3991" lon="2.7769">
        <ele>81</ele>
        <time>2023-10-30T15:24:08.230Z</time>
      </trkpt>
      <trkpt lat="50.39871" lon="2.77692">
        <ele>75</ele>
        <time>2023-10-30T15:24:09.325Z</time>
      </trkpt>
      <trkpt lat="50.39828" lon="2.77701">
        <ele>71</ele>
        <time>2023-10-30T15:24:10.431Z</time>
      </trkpt>
      <trkpt lat="50.39791" lon="2.77706">
        <ele>69.4</ele>
        <time>2023-10-30T15:24:11.546Z</time>
      </trkpt>
      <trkpt lat="50.39771" lon="2.77694">
        <ele>69</ele>
        <time>2023-10-30T15:24:12.666Z</time>
      </trkpt>
      <trkpt lat="50.39765" lon="2.7769">
        <ele>68.4</ele>
        <time>2023-10-30T15:24:13.788Z</time>
      </trkpt>
      <trkpt lat="50.39724" lon="2.77654">
        <ele>66.2</ele>
        <time>2023-10-30T15:24:14.921Z</time>
      </trkpt>
      <trkpt lat="50.39684" lon="2.77615">
        <ele>67.2</ele>
        <time>2023-10-30T15:24:16.066Z</time>
      </trkpt>
      <trkpt lat="50.39652" lon="2.77585">
        <ele>67.6</ele>
        <time>2023-10-30T15:24:17.220Z</time>
      </trkpt>
      <trkpt lat="50.39648" lon="2.7758">
        <ele>67.4</ele>
        <time>2023-10-30T15:24:18.375Z</time>
      </trkpt>
      <trkpt lat="50.3964" lon="2.77572">
        <ele>67.2</ele>
        <time>2023-10-30T15:24:19.533Z</time>
      </trkpt>
      <trkpt lat="50.39637" lon="2.77569">
        <ele>67</ele>
        <time>2023-10-30T15:24:20.691Z</time>
      </trkpt>
      <trkpt lat="50.39636" lon="2.77552">
        <ele>67.4</ele>
        <time>2023-10-30T15:24:21.852Z</time>
      </trkpt>
      <trkpt lat="50.39633" lon="2.77542">
        <ele>67.6</ele>
        <time>2023-10-30T15:24:23.015Z</time>
      </trkpt>
      <trkpt lat="50.39619" lon="2.77511">
        <ele>67.4</ele>
        <time>2023-10-30T15:24:24.184Z</time>
      </trkpt>
      <trkpt lat="50.39605" lon="2.77477">
        <ele>67.2</ele>
        <time>2023-10-30T15:24:25.359Z</time>
      </trkpt>
      <trkpt lat="50.39588" lon="2.77436">
        <ele>69.4</ele>
        <time>2023-10-30T15:24:26.542Z</time>
      </trkpt>
      <trkpt lat="50.39583" lon="2.77426">
        <ele>69.8</ele>
        <time>2023-10-30T15:24:27.727Z</time>
      </trkpt>
      <trkpt lat="50.39574" lon="2.77407">
        <ele>70.2</ele>
        <time>2023-10-30T15:24:28.915Z</time>
      </trkpt>
      <trkpt lat="50.39553" lon="2.77366">
        <ele>71</ele>
        <time>2023-10-30T15:24:30.112Z</time>
      </trkpt>
      <trkpt lat="50.39534" lon="2.77329">
        <ele>71</ele>
        <time>2023-10-30T15:24:31.316Z</time>
      </trkpt>
      <trkpt lat="50.39517" lon="2.77302">
        <ele>71.4</ele>
        <time>2023-10-30T15:24:32.526Z</time>
      </trkpt>
      <trkpt lat="50.39495" lon="2.77279">
        <ele>72.2</ele>
        <time>2023-10-30T15:24:33.742Z</time>
      </trkpt>
      <trkpt lat="50.39477" lon="2.7726">
        <ele>72.2</ele>
        <time>2023-10-30T15:24:34.963Z</time>
      </trkpt>
      <trkpt lat="50.39454" lon="2.77236">
        <ele>72.8</ele>
        <time>2023-10-30T15:24:36.191Z</time>
      </trkpt>
      <trkpt lat="50.39448" lon="2.77226">
        <ele>73</ele>
        <time>2023-10-30T15:24:37.421Z</time>
      </trkpt>
      <trkpt lat="50.39452" lon="2.77219">
        <ele>73</ele>
        <time>2023-10-30T15:24:38.653Z</time>
      </trkpt>
      <trkpt lat="50.39458" lon="2.77208">
        <ele>73</ele>
        <time>2023-10-30T15:24:39.887Z</time>
      </trkpt>
      <trkpt lat="50.39464" lon="2.77197">
        <ele>73</ele>
        <time>2023-10-30T15:24:41.123Z</time>
      </trkpt>
      <trkpt lat="50.39472" lon="2.77186">
        <ele>73.6</ele>
        <time>2023-10-30T15:24:42.362Z</time>
      </trkpt>
      <trkpt lat="50.39487" lon="2.77163">
        <ele>75</ele>
        <time>2023-10-30T15:24:43.606Z</time>
      </trkpt>
      <trkpt lat="50.395" lon="2.77135">
        <ele>75.6</ele>
        <time>2023-10-30T15:24:44.856Z</time>
      </trkpt>
      <trkpt lat="50.39503" lon="2.77129">
        <ele>76</ele>
        <time>2023-10-30T15:24:46.107Z</time>
      </trkpt>
      <trkpt lat="50.39502" lon="2.77123">
        <ele>76.2</ele>
        <time>2023-10-30T15:24:47.359Z</time>
      </trkpt>
      <trkpt lat="50.39497" lon="2.77111">
        <ele>76.2</ele>
        <time>2023-10-30T15:24:48.613Z</time>
      </trkpt>
      <trkpt lat="50.39488" lon="2.77092">
        <ele>77</ele>
        <time>2023-10-30T15:24:49.871Z</time>
      </trkpt>
      <trkpt lat="50.3948" lon="2.77073">
        <ele>78.2</ele>
        <time>2023-10-30T15:24:51.132Z</time>
      </trkpt>
      <trkpt lat="50.39473" lon="2.77058">
        <ele>79</ele>
        <time>2023-10-30T15:24:52.396Z</time>
      </trkpt>
      <trkpt lat="50.3947" lon="2.77051">
        <ele>79.4</ele>
        <time>2023-10-30T15:24:53.661Z</time>
      </trkpt>
      <trkpt lat="50.39466" lon="2.77042">
        <ele>79.8</ele>
        <time>2023-10-30T15:24:54.928Z</time>
      </trkpt>
      <trkpt lat="50.39456" lon="2.7702">
        <ele>81.6</ele>
        <time>2023-10-30T15:24:56.199Z</time>
      </trkpt>
      <trkpt lat="50.39455" lon="2.77018">
        <ele>81.8</ele>
        <time>2023-10-30T15:24:57.471Z</time>
      </trkpt>
      <trkpt lat="50.39449" lon="2.77005">
        <ele>83</ele>
        <time>2023-10-30T15:24:58.745Z</time>
      </trkpt>
      <trkpt lat="50.39439" lon="2.76983">
        <ele>84.6</ele>
        <time>2023-10-30T15:25:00.023Z</time>
      </trkpt>
      <trkpt lat="50.39431" lon="2.76961">
        <ele>84.6</ele>
        <time>2023-10-30T15:25:01.305Z</time>
      </trkpt>
      <trkpt lat="50.39424" lon="2.76943">
        <ele>84.4</ele>
        <time>2023-10-30T15:25:02.591Z</time>
      </trkpt>
      <trkpt lat="50.39415" lon="2.76922">
        <ele>84.2</ele>
        <time>2023-10-30T15:25:03.881Z</time>
      </trkpt>
      <trkpt lat="50.39408" lon="2.76903">
        <ele>84.6</ele>
        <time>2023-10-30T15:25:05.174Z</time>
      </trkpt>
      <trkpt lat="50.39402" lon="2.76879">
        <ele>85.4</ele>
        <time>2023-10-30T15:25:06.471Z</time>
      </trkpt>
      <trkpt lat="50.39395" lon="2.76849">
        <ele>87</ele>
        <time>2023-10-30T15:25:07.773Z</time>
      </trkpt>
      <trkpt lat="50.39388" lon="2.7682">
        <ele>88</ele>
        <time>2023-10-30T15:25:09.080Z</time>
      </trkpt>
      <trkpt lat="50.3938" lon="2.76788">
        <ele>87.8</ele>
        <time>2023-10-30T15:25:10.392Z</time>
      </trkpt>
      <trkpt lat="50.3937" lon="2.76748">
        <ele>88.2</ele>
        <time>2023-10-30T15:25:11.711Z</time>
      </trkpt>
      <trkpt lat="50.39355" lon="2.76691">
        <ele>89</ele>
        <time>2023-10-30T15:25:13.039Z</time>
      </trkpt>
      <trkpt lat="50.39342" lon="2.76641">
        <ele>90</ele>
        <time>2023-10-30T15:25:14.376Z</time>
      </trkpt>
      <trkpt lat="50.39332" lon="2.76594">
        <ele>90</ele>
        <time>2023-10-30T15:25:15.721Z</time>
      </trkpt>
      <trkpt lat="50.39324" lon="2.76559">
        <ele>90.6</ele>
        <time>2023-10-30T15:25:17.071Z</time>
      </trkpt>
      <trkpt lat="50.39316" lon="2.7652">
        <ele>91</ele>
        <time>2023-10-30T15:25:18.428Z</time>
      </trkpt>
      <trkpt lat="50.39309" lon="2.76486">
        <ele>91.4</ele>
        <time>2023-10-30T15:25:19.790Z</time>
      </trkpt>
      <trkpt lat="50.39302" lon="2.76452">
        <ele>91</ele>
        <time>2023-10-30T15:25:21.158Z</time>
      </trkpt>
      <trkpt lat="50.39295" lon="2.76411">
        <ele>91.8</ele>
        <time>2023-10-30T15:25:22.533Z</time>
      </trkpt>
      <trkpt lat="50.39289" lon="2.76377">
        <ele>93.4</ele>
        <time>2023-10-30T15:25:23.913Z</time>
      </trkpt>
      <trkpt lat="50.39285" lon="2.76354">
        <ele>94.2</ele>
        <time>2023-10-30T15:25:25.297Z</time>
      </trkpt>
      <trkpt lat="50.39281" lon="2.7632">
        <ele>96.4</ele>
        <time>2023-10-30T15:25:26.686Z</time>
      </trkpt>
      <trkpt lat="50.39279" lon="2.76295">
        <ele>98.8</ele>
        <time>2023-10-30T15:25:28.079Z</time>
      </trkpt>
      <trkpt lat="50.39276" lon="2.7627">
        <ele>101</ele>
        <time>2023-10-30T15:25:29.476Z</time>
      </trkpt>
      <trkpt lat="50.39275" lon="2.76249">
        <ele>102.6</ele>
        <time>2023-10-30T15:25:30.876Z</time>
      </trkpt>
      <trkpt lat="50.39271" lon="2.76216">
        <ele>104.6</ele>
        <time>2023-10-30T15:25:32.282Z</time>
      </trkpt>
      <trkpt lat="50.39269" lon="2.7619">
        <ele>106.8</ele>
        <time>2023-10-30T15:25:33.692Z</time>
      </trkpt>
      <trkpt lat="50.39267" lon="2.76176">
        <ele>109</ele>
        <time>2023-10-30T15:25:35.104Z</time>
      </trkpt>
      <trkpt lat="50.39264" lon="2.76154">
        <ele>111.2</ele>
        <time>2023-10-30T15:25:36.519Z</time>
      </trkpt>
      <trkpt lat="50.39261" lon="2.76127">
        <ele>113.4</ele>
        <time>2023-10-30T15:25:37.939Z</time>
      </trkpt>
      <trkpt lat="50.39257" lon="2.76099">
        <ele>114.8</ele>
        <time>2023-10-30T15:25:39.363Z</time>
      </trkpt>
      <trkpt lat="50.39255" lon="2.76078">
        <ele>116.4</ele>
        <time>2023-10-30T15:25:40.791Z</time>
      </trkpt>
      <trkpt lat="50.3925" lon="2.76055">
        <ele>118.2</ele>
        <time>2023-10-30T15:25:42.222Z</time>
      </trkpt>
      <trkpt lat="50.39244" lon="2.76027">
        <ele>120.6</ele>
        <time>2023-10-30T15:25:43.658Z</time>
      </trkpt>
      <trkpt lat="50.39237" lon="2.76011">
        <ele>121.6</ele>
        <time>2023-10-30T15:25:45.097Z</time>
      </trkpt>
      <trkpt lat="50.39228" lon="2.75992">
        <ele>123.2</ele>
        <time>2023-10-30T15:25:46.540Z</time>
      </trkpt>
      <trkpt lat="50.39215" lon="2.75979">
        <ele>123.8</ele>
        <time>2023-10-30T15:25:47.986Z</time>
      </trkpt>
      <trkpt lat="50.39199" lon="2.75976">
        <ele>123</ele>
        <time>2023-10-30T15:25:49.436Z</time>
      </trkpt>
      <trkpt lat="50.39183" lon="2.75971">
        <ele>122.4</ele>
        <time>2023-10-30T15:25:50.890Z</time>
      </trkpt>
      <trkpt lat="50.39171" lon="2.7596">
        <ele>122.6</ele>
        <time>2023-10-30T15:25:52.348Z</time>
      </trkpt>
      <trkpt lat="50.39164" lon="2.7595">
        <ele>123.2</ele>
        <time>2023-10-30T15:25:53.808Z</time>
      </trkpt>
      <trkpt lat="50.39154" lon="2.75931">
        <ele>123.4</ele>
        <time>2023-10-30T15:25:55.272Z</time>
      </trkpt>
      <trkpt lat="50.39145" lon="2.75913">
        <ele>123.8</ele>
        <time>2023-10-30T15:25:56.740Z</time>
      </trkpt>
      <trkpt lat="50.39133" lon="2.75891">
        <ele>124</ele>
        <time>2023-10-30T15:25:58.212Z</time>
      </trkpt>
      <trkpt lat="50.39123" lon="2.75871">
        <ele>123.6</ele>
        <time>2023-10-30T15:25:59.688Z</time>
      </trkpt>
      <trkpt lat="50.39116" lon="2.75855">
        <ele>123.8</ele>
        <time>2023-10-30T15:26:01.167Z</time>
      </trkpt>
      <trkpt lat="50.3911" lon="2.75839">
        <ele>124</ele>
        <time>2023-10-30T15:26:02.649Z</time>
      </trkpt>
      <trkpt lat="50.39105" lon="2.75826">
        <ele>124.2</ele>
        <time>2023-10-30T15:26:04.133Z</time>
      </trkpt>
      <trkpt lat="50.39101" lon="2.75813">
        <ele>124.2</ele>
        <time>2023-10-30T15:26:05.620Z</time>
      </trkpt>
      <trkpt lat="50.39104" lon="2.75806">
        <ele>124.2</ele>
        <time>2023-10-30T15:26:07.108Z</time>
      </trkpt>
      <trkpt lat="50.39113" lon="2.75803">
        <ele>124.2</ele>
        <time>2023-10-30T15:26:08.598Z</time>
      </trkpt>
      <trkpt lat="50.39125" lon="2.758">
        <ele>124.6</ele>
        <time>2023-10-30T15:26:10.091Z</time>
      </trkpt>
      <trkpt lat="50.39147" lon="2.75796">
        <ele>124.8</ele>
        <time>2023-10-30T15:26:11.589Z</time>
      </trkpt>
      <trkpt lat="50.39171" lon="2.75792">
        <ele>124.8</ele>
        <time>2023-10-30T15:26:13.093Z</time>
      </trkpt>
      <trkpt lat="50.39205" lon="2.75785">
        <ele>124</ele>
        <time>2023-10-30T15:26:14.606Z</time>
      </trkpt>
      <trkpt lat="50.39234" lon="2.75777">
        <ele>124</ele>
        <time>2023-10-30T15:26:16.126Z</time>
      </trkpt>
      <trkpt lat="50.39234" lon="2.75777">
        <ele>124</ele>
        <time>2023-10-30T15:26:17.646Z</time>
      </trkpt>
      <trkpt lat="50.39255" lon="2.75767">
        <ele>124.4</ele>
        <time>2023-10-30T15:26:19.171Z</time>
      </trkpt>
      <trkpt lat="50.39259" lon="2.75764">
        <ele>124.4</ele>
        <time>2023-10-30T15:26:20.698Z</time>
      </trkpt>
      <trkpt lat="50.39267" lon="2.75756">
        <ele>124.4</ele>
        <time>2023-10-30T15:26:22.227Z</time>
      </trkpt>
      <trkpt lat="50.39278" lon="2.75744">
        <ele>124.2</ele>
        <time>2023-10-30T15:26:23.759Z</time>
      </trkpt>
      <trkpt lat="50.39282" lon="2.7574">
        <ele>124</ele>
        <time>2023-10-30T15:26:25.292Z</time>
      </trkpt>
      <trkpt lat="50.39301" lon="2.7572">
        <ele>123.2</ele>
        <time>2023-10-30T15:26:26.831Z</time>
      </trkpt>
      <trkpt lat="50.3931" lon="2.75711">
        <ele>123.2</ele>
        <time>2023-10-30T15:26:28.372Z</time>
      </trkpt>
      <trkpt lat="50.39318" lon="2.75702">
        <ele>122</ele>
        <time>2023-10-30T15:26:29.916Z</time>
      </trkpt>
      <trkpt lat="50.39339" lon="2.7568">
        <ele>120</ele>
        <time>2023-10-30T15:26:31.466Z</time>
      </trkpt>
      <trkpt lat="50.39362" lon="2.75657">
        <ele>118.2</ele>
        <time>2023-10-30T15:26:33.023Z</time>
      </trkpt>
      <trkpt lat="50.39365" lon="2.75653">
        <ele>118</ele>
        <time>2023-10-30T15:26:34.581Z</time>
      </trkpt>
      <trkpt lat="50.39373" lon="2.75644">
        <ele>117.4</ele>
        <time>2023-10-30T15:26:36.141Z</time>
      </trkpt>
      <trkpt lat="50.39377" lon="2.7564">
        <ele>116.8</ele>
        <time>2023-10-30T15:26:37.702Z</time>
      </trkpt>
      <trkpt lat="50.39381" lon="2.75635">
        <ele>116.2</ele>
        <time>2023-10-30T15:26:39.264Z</time>
      </trkpt>
      <trkpt lat="50.39393" lon="2.75622">
        <ele>114.6</ele>
        <time>2023-10-30T15:26:40.830Z</time>
      </trkpt>
      <trkpt lat="50.39396" lon="2.75618">
        <ele>114.4</ele>
        <time>2023-10-30T15:26:42.397Z</time>
      </trkpt>
      <trkpt lat="50.39399" lon="2.75615">
        <ele>114.2</ele>
        <time>2023-10-30T15:26:43.965Z</time>
      </trkpt>
      <trkpt lat="50.39395" lon="2.75607">
        <ele>113</ele>
        <time>2023-10-30T15:26:45.534Z</time>
      </trkpt>
      <trkpt lat="50.39381" lon="2.75609">
        <ele>113</ele>
        <time>2023-10-30T15:26:47.107Z</time>
      </trkpt>
      <trkpt lat="50.39366" lon="2.75612">
        <ele>112.8</ele>
        <time>2023-10-30T15:26:48.684Z</time>
      </trkpt>
      <trkpt lat="50.39357" lon="2.75614">
        <ele>112.6</ele>
        <time>2023-10-30T15:26:50.263Z</time>
      </trkpt>
      <trkpt lat="50.39353" lon="2.75615">
        <ele>112.4</ele>
        <time>2023-10-30T15:26:51.843Z</time>
      </trkpt>
      <trkpt lat="50.39337" lon="2.75619">
        <ele>112.4</ele>
        <time>2023-10-30T15:26:53.427Z</time>
      </trkpt>
      <trkpt lat="50.39317" lon="2.75623">
        <ele>112.2</ele>
        <time>2023-10-30T15:26:55.015Z</time>
      </trkpt>
      <trkpt lat="50.39297" lon="2.75628">
        <ele>112.4</ele>
        <time>2023-10-30T15:26:56.609Z</time>
      </trkpt>
      <trkpt lat="50.39274" lon="2.75633">
        <ele>113.2</ele>
        <time>2023-10-30T15:26:58.208Z</time>
      </trkpt>
      <trkpt lat="50.39252" lon="2.75637">
        <ele>114</ele>
        <time>2023-10-30T15:26:59.813Z</time>
      </trkpt>
      <trkpt lat="50.39227" lon="2.75642">
        <ele>115.4</ele>
        <time>2023-10-30T15:27:01.424Z</time>
      </trkpt>
      <trkpt lat="50.39213" lon="2.75644">
        <ele>116.2</ele>
        <time>2023-10-30T15:27:03.038Z</time>
      </trkpt>
      <trkpt lat="50.39195" lon="2.75647">
        <ele>117.8</ele>
        <time>2023-10-30T15:27:04.657Z</time>
      </trkpt>
      <trkpt lat="50.39185" lon="2.75649">
        <ele>118.2</ele>
        <time>2023-10-30T15:27:06.278Z</time>
      </trkpt>
      <trkpt lat="50.39168" lon="2.75652">
        <ele>118.2</ele>
        <time>2023-10-30T15:27:07.903Z</time>
      </trkpt>
      <trkpt lat="50.39153" lon="2.75655">
        <ele>118.4</ele>
        <time>2023-10-30T15:27:09.532Z</time>
      </trkpt>
      <trkpt lat="50.39137" lon="2.75657">
        <ele>118.8</ele>
        <time>2023-10-30T15:27:11.165Z</time>
      </trkpt>
      <trkpt lat="50.39124" lon="2.75659">
        <ele>119.4</ele>
        <time>2023-10-30T15:27:12.801Z</time>
      </trkpt>
      <trkpt lat="50.39102" lon="2.75661">
        <ele>120.2</ele>
        <time>2023-10-30T15:27:14.442Z</time>
      </trkpt>
      <trkpt lat="50.39076" lon="2.75662">
        <ele>123</ele>
        <time>2023-10-30T15:27:16.090Z</time>
      </trkpt>
      <trkpt lat="50.39056" lon="2.75662">
        <ele>124.4</ele>
        <time>2023-10-30T15:27:17.743Z</time>
      </trkpt>
      <trkpt lat="50.39038" lon="2.75663">
        <ele>124.6</ele>
        <time>2023-10-30T15:27:19.400Z</time>
      </trkpt>
      <trkpt lat="50.39014" lon="2.75663">
        <ele>125.2</ele>
        <time>2023-10-30T15:27:21.063Z</time>
      </trkpt>
      <trkpt lat="50.38986" lon="2.75663">
        <ele>125.2</ele>
        <time>2023-10-30T15:27:22.733Z</time>
      </trkpt>
      <trkpt lat="50.38956" lon="2.75662">
        <ele>126</ele>
        <time>2023-10-30T15:27:24.410Z</time>
      </trkpt>
      <trkpt lat="50.3893" lon="2.75661">
        <ele>127</ele>
        <time>2023-10-30T15:27:26.093Z</time>
      </trkpt>
      <trkpt lat="50.38908" lon="2.7566">
        <ele>127.8</ele>
        <time>2023-10-30T15:27:27.782Z</time>
      </trkpt>
      <trkpt lat="50.38883" lon="2.75659">
        <ele>129</ele>
        <time>2023-10-30T15:27:29.477Z</time>
      </trkpt>
      <trkpt lat="50.38857" lon="2.75658">
        <ele>129.4</ele>
        <time>2023-10-30T15:27:31.178Z</time>
      </trkpt>
      <trkpt lat="50.38831" lon="2.75657">
        <ele>129.2</ele>
        <time>2023-10-30T15:27:32.886Z</time>
      </trkpt>
      <trkpt lat="50.38797" lon="2.75657">
        <ele>129.2</ele>
        <time>2023-10-30T15:27:34.602Z</time>
      </trkpt>
      <trkpt lat="50.38774" lon="2.75658">
        <ele>130.8</ele>
        <time>2023-10-30T15:27:36.324Z</time>
      </trkpt>
      <trkpt lat="50.3877" lon="2.75658">
        <ele>130.6</ele>
        <time>2023-10-30T15:27:38.047Z</time>
      </trkpt>
      <trkpt lat="50.3875" lon="2.75658">
        <ele>130.2</ele>
        <time>2023-10-30T15:27:39.774Z</time>
      </trkpt>
      <trkpt lat="50.38723" lon="2.75658">
        <ele>130.4</ele>
        <time>2023-10-30T15:27:41.508Z</time>
      </trkpt>
      <trkpt lat="50.38718" lon="2.75658">
        <ele>130.4</ele>
        <time>2023-10-30T15:27:43.243Z</time>
      </trkpt>
      <trkpt lat="50.38699" lon="2.75659">
        <ele>131</ele>
        <time>2023-10-30T15:27:44.983Z</time>
      </trkpt>
      <trkpt lat="50.38687" lon="2.7566">
        <ele>131.4</ele>
        <time>2023-10-30T15:27:46.726Z</time>
      </trkpt>
      <trkpt lat="50.38677" lon="2.7566">
        <ele>132</ele>
        <time>2023-10-30T15:27:48.471Z</time>
      </trkpt>
      <trkpt lat="50.38668" lon="2.7566">
        <ele>132.4</ele>
        <time>2023-10-30T15:27:50.218Z</time>
      </trkpt>
      <trkpt lat="50.38658" lon="2.75661">
        <ele>132.6</ele>
        <time>2023-10-30T15:27:51.968Z</time>
      </trkpt>
      <trkpt lat="50.38653" lon="2.75661">
        <ele>132.6</ele>
        <time>2023-10-30T15:27:53.719Z</time>
      </trkpt>
      <trkpt lat="50.38648" lon="2.75661">
        <ele>132.6</ele>
        <time>2023-10-30T15:27:55.471Z</time>
      </trkpt>
      <trkpt lat="50.3863" lon="2.75662">
        <ele>132.2</ele>
        <time>2023-10-30T15:27:57.228Z</time>
      </trkpt>
      <trkpt lat="50.38611" lon="2.75665">
        <ele>131</ele>
        <time>2023-10-30T15:27:58.989Z</time>
      </trkpt>
      <trkpt lat="50.38607" lon="2.75669">
        <ele>130.8</ele>
        <time>2023-10-30T15:28:00.751Z</time>
      </trkpt>
      <trkpt lat="50.38591" lon="2.75688">
        <ele>131.2</ele>
        <time>2023-10-30T15:28:02.518Z</time>
      </trkpt>
      <trkpt lat="50.38588" lon="2.75692">
        <ele>130.8</ele>
        <time>2023-10-30T15:28:04.286Z</time>
      </trkpt>
      <trkpt lat="50.38575" lon="2.75709">
        <ele>131</ele>
        <time>2023-10-30T15:28:06.059Z</time>
      </trkpt>
      <trkpt lat="50.38564" lon="2.7571">
        <ele>131.6</ele>
        <time>2023-10-30T15:28:07.834Z</time>
      </trkpt>
      <trkpt lat="50.38559" lon="2.75709">
        <ele>131.6</ele>
        <time>2023-10-30T15:28:09.610Z</time>
      </trkpt>
      <trkpt lat="50.38551" lon="2.75708">
        <ele>131.4</ele>
        <time>2023-10-30T15:28:11.388Z</time>
      </trkpt>
      <trkpt lat="50.38548" lon="2.75695">
        <ele>131</ele>
        <time>2023-10-30T15:28:13.168Z</time>
      </trkpt>
      <trkpt lat="50.38555" lon="2.75674">
        <ele>130</ele>
        <time>2023-10-30T15:28:14.952Z</time>
      </trkpt>
      <trkpt lat="50.3856" lon="2.75659">
        <ele>130</ele>
        <time>2023-10-30T15:28:16.739Z</time>
      </trkpt>
      <trkpt lat="50.38565" lon="2.75642">
        <ele>130.2</ele>
        <time>2023-10-30T15:28:18.529Z</time>
      </trkpt>
      <trkpt lat="50.38578" lon="2.75601">
        <ele>130</ele>
        <time>2023-10-30T15:28:20.326Z</time>
      </trkpt>
      <trkpt lat="50.38591" lon="2.75562">
        <ele>129</ele>
        <time>2023-10-30T15:28:22.130Z</time>
      </trkpt>
      <trkpt lat="50.38596" lon="2.75545">
        <ele>127.4</ele>
        <time>2023-10-30T15:28:23.937Z</time>
      </trkpt>
      <trkpt lat="50.38602" lon="2.75526">
        <ele>125</ele>
        <time>2023-10-30T15:28:25.747Z</time>
      </trkpt>
      <trkpt lat="50.38608" lon="2.75507">
        <ele>123</ele>
        <time>2023-10-30T15:28:27.560Z</time>
      </trkpt>
      <trkpt lat="50.38614" lon="2.75487">
        <ele>119.6</ele>
        <time>2023-10-30T15:28:29.377Z</time>
      </trkpt>
      <trkpt lat="50.38632" lon="2.7543">
        <ele>112.6</ele>
        <time>2023-10-30T15:28:31.204Z</time>
      </trkpt>
      <trkpt lat="50.38652" lon="2.7538">
        <ele>108.8</ele>
        <time>2023-10-30T15:28:33.040Z</time>
      </trkpt>
      <trkpt lat="50.3866" lon="2.75364">
        <ele>107.4</ele>
        <time>2023-10-30T15:28:34.879Z</time>
      </trkpt>
      <trkpt lat="50.38668" lon="2.75352">
        <ele>106.6</ele>
        <time>2023-10-30T15:28:36.721Z</time>
      </trkpt>
      <trkpt lat="50.38679" lon="2.75336">
        <ele>106</ele>
        <time>2023-10-30T15:28:38.566Z</time>
      </trkpt>
      <trkpt lat="50.38686" lon="2.75326">
        <ele>105</ele>
        <time>2023-10-30T15:28:40.414Z</time>
      </trkpt>
      <trkpt lat="50.38703" lon="2.75307">
        <ele>103</ele>
        <time>2023-10-30T15:28:42.267Z</time>
      </trkpt>
      <trkpt lat="50.38712" lon="2.75297">
        <ele>101.8</ele>
        <time>2023-10-30T15:28:44.123Z</time>
      </trkpt>
      <trkpt lat="50.38722" lon="2.75286">
        <ele>100.4</ele>
        <time>2023-10-30T15:28:45.981Z</time>
      </trkpt>
      <trkpt lat="50.38741" lon="2.75265">
        <ele>99.6</ele>
        <time>2023-10-30T15:28:47.845Z</time>
      </trkpt>
      <trkpt lat="50.38773" lon="2.75231">
        <ele>98</ele>
        <time>2023-10-30T15:28:49.718Z</time>
      </trkpt>
      <trkpt lat="50.38787" lon="2.75213">
        <ele>97</ele>
        <time>2023-10-30T15:28:51.596Z</time>
      </trkpt>
      <trkpt lat="50.38795" lon="2.752">
        <ele>96</ele>
        <time>2023-10-30T15:28:53.477Z</time>
      </trkpt>
      <trkpt lat="50.38805" lon="2.75178">
        <ele>94.8</ele>
        <time>2023-10-30T15:28:55.362Z</time>
      </trkpt>
      <trkpt lat="50.3881" lon="2.75163">
        <ele>93.8</ele>
        <time>2023-10-30T15:28:57.250Z</time>
      </trkpt>
      <trkpt lat="50.38828" lon="2.75115">
        <ele>91.6</ele>
        <time>2023-10-30T15:28:59.146Z</time>
      </trkpt>
      <trkpt lat="50.38845" lon="2.75071">
        <ele>89</ele>
        <time>2023-10-30T15:29:01.050Z</time>
      </trkpt>
      <trkpt lat="50.38852" lon="2.75055">
        <ele>88</ele>
        <time>2023-10-30T15:29:02.957Z</time>
      </trkpt>
      <trkpt lat="50.38859" lon="2.75043">
        <ele>87</ele>
        <time>2023-10-30T15:29:04.867Z</time>
      </trkpt>
      <trkpt lat="50.38867" lon="2.75031">
        <ele>86.2</ele>
        <time>2023-10-30T15:29:06.780Z</time>
      </trkpt>
      <trkpt lat="50.38874" lon="2.75023">
        <ele>85.8</ele>
        <time>2023-10-30T15:29:08.695Z</time>
      </trkpt>
      <trkpt lat="50.38878" lon="2.7502">
        <ele>85.6</ele>
        <time>2023-10-30T15:29:10.611Z</time>
      </trkpt>
      <trkpt lat="50.3889" lon="2.75015">
        <ele>85</ele>
        <time>2023-10-30T15:29:12.530Z</time>
      </trkpt>
      <trkpt lat="50.389" lon="2.74998">
        <ele>83.4</ele>
        <time>2023-10-30T15:29:14.452Z</time>
      </trkpt>
      <trkpt lat="50.38898" lon="2.74995">
        <ele>83.2</ele>
        <time>2023-10-30T15:29:16.375Z</time>
      </trkpt>
      <trkpt lat="50.38894" lon="2.75014">
        <ele>84.8</ele>
        <time>2023-10-30T15:29:18.301Z</time>
      </trkpt>
      <trkpt lat="50.38894" lon="2.7499">
        <ele>82.8</ele>
        <time>2023-10-30T15:29:20.231Z</time>
      </trkpt>
      <trkpt lat="50.38891" lon="2.74982">
        <ele>82.2</ele>
        <time>2023-10-30T15:29:22.162Z</time>
      </trkpt>
      <trkpt lat="50.3889" lon="2.74979">
        <ele>81.8</ele>
        <time>2023-10-30T15:29:24.094Z</time>
      </trkpt>
      <trkpt lat="50.38882" lon="2.74959">
        <ele>80.6</ele>
        <time>2023-10-30T15:29:26.030Z</time>
      </trkpt>
      <trkpt lat="50.38871" lon="2.74944">
        <ele>80.2</ele>
        <time>2023-10-30T15:29:27.969Z</time>
      </trkpt>
      <trkpt lat="50.38854" lon="2.74927">
        <ele>80.4</ele>
        <time>2023-10-30T15:29:29.913Z</time>
      </trkpt>
      <trkpt lat="50.3883" lon="2.74911">
        <ele>81.6</ele>
        <time>2023-10-30T15:29:31.863Z</time>
      </trkpt>
      <trkpt lat="50.38822" lon="2.74906">
        <ele>82.2</ele>
        <time>2023-10-30T15:29:33.816Z</time>
      </trkpt>
      <trkpt lat="50.3882" lon="2.74904">
        <ele>82.4</ele>
        <time>2023-10-30T15:29:35.769Z</time>
      </trkpt>
      <trkpt lat="50.3881" lon="2.74898">
        <ele>83.2</ele>
        <time>2023-10-30T15:29:37.725Z</time>
      </trkpt>
      <trkpt lat="50.38804" lon="2.74894">
        <ele>83.8</ele>
        <time>2023-10-30T15:29:39.682Z</time>
      </trkpt>
      <trkpt lat="50.388" lon="2.74892">
        <ele>84.2</ele>
        <time>2023-10-30T15:29:41.640Z</time>
      </trkpt>
      <trkpt lat="50.38788" lon="2.7488">
        <ele>85.6</ele>
        <time>2023-10-30T15:29:43.602Z</time>
      </trkpt>
      <trkpt lat="50.38779" lon="2.74866">
        <ele>86.6</ele>
        <time>2023-10-30T15:29:45.567Z</time>
      </trkpt>
      <trkpt lat="50.3877" lon="2.74842">
        <ele>87.2</ele>
        <time>2023-10-30T15:29:47.536Z</time>
      </trkpt>
      <trkpt lat="50.38769" lon="2.74835">
        <ele>87.4</ele>
        <time>2023-10-30T15:29:49.507Z</time>
      </trkpt>
      <trkpt lat="50.38767" lon="2.74828">
        <ele>87.6</ele>
        <time>2023-10-30T15:29:51.479Z</time>
      </trkpt>
      <trkpt lat="50.38764" lon="2.74824">
        <ele>87.8</ele>
        <time>2023-10-30T15:29:53.452Z</time>
      </trkpt>
      <trkpt lat="50.38745" lon="2.74797">
        <ele>89</ele>
        <time>2023-10-30T15:29:55.431Z</time>
      </trkpt>
      <trkpt lat="50.3873" lon="2.74774">
        <ele>89.6</ele>
        <time>2023-10-30T15:29:57.415Z</time>
      </trkpt>
      <trkpt lat="50.3872" lon="2.74752">
        <ele>90</ele>
        <time>2023-10-30T15:29:59.403Z</time>
      </trkpt>
      <trkpt lat="50.38711" lon="2.74728">
        <ele>90.4</ele>
        <time>2023-10-30T15:30:01.396Z</time>
      </trkpt>
      <trkpt lat="50.38702" lon="2.74702">
        <ele>90.6</ele>
        <time>2023-10-30T15:30:03.393Z</time>
      </trkpt>
      <trkpt lat="50.38695" lon="2.74681">
        <ele>90.8</ele>
        <time>2023-10-30T15:30:05.394Z</time>
      </trkpt>
      <trkpt lat="50.38687" lon="2.74655">
        <ele>91.8</ele>
        <time>2023-10-30T15:30:07.399Z</time>
      </trkpt>
      <trkpt lat="50.38677" lon="2.74627">
        <ele>92.6</ele>
        <time>2023-10-30T15:30:09.409Z</time>
      </trkpt>
      <trkpt lat="50.38667" lon="2.74599">
        <ele>92.8</ele>
        <time>2023-10-30T15:30:11.424Z</time>
      </trkpt>
      <trkpt lat="50.38658" lon="2.74574">
        <ele>93.2</ele>
        <time>2023-10-30T15:30:13.444Z</time>
      </trkpt>
      <trkpt lat="50.38646" lon="2.74547">
        <ele>93.6</ele>
        <time>2023-10-30T15:30:15.469Z</time>
      </trkpt>
      <trkpt lat="50.38633" lon="2.74521">
        <ele>94.2</ele>
        <time>2023-10-30T15:30:17.499Z</time>
      </trkpt>
      <trkpt lat="50.38621" lon="2.74498">
        <ele>94.6</ele>
        <time>2023-10-30T15:30:19.534Z</time>
      </trkpt>
      <trkpt lat="50.38614" lon="2.74484">
        <ele>94.8</ele>
        <time>2023-10-30T15:30:21.572Z</time>
      </trkpt>
      <trkpt lat="50.3861" lon="2.74478">
        <ele>95</ele>
        <time>2023-10-30T15:30:23.611Z</time>
      </trkpt>
      <trkpt lat="50.3861" lon="2.74476">
        <ele>95</ele>
        <time>2023-10-30T15:30:25.650Z</time>
      </trkpt>
      <trkpt lat="50.38603" lon="2.74457">
        <ele>95.6</ele>
        <time>2023-10-30T15:30:27.693Z</time>
      </trkpt>
      <trkpt lat="50.38594" lon="2.7443">
        <ele>96.4</ele>
        <time>2023-10-30T15:30:29.740Z</time>
      </trkpt>
      <trkpt lat="50.38589" lon="2.74414">
        <ele>96.8</ele>
        <time>2023-10-30T15:30:31.790Z</time>
      </trkpt>
      <trkpt lat="50.38578" lon="2.74391">
        <ele>97</ele>
        <time>2023-10-30T15:30:33.845Z</time>
      </trkpt>
      <trkpt lat="50.38569" lon="2.74379">
        <ele>97.2</ele>
        <time>2023-10-30T15:30:35.902Z</time>
      </trkpt>
      <trkpt lat="50.38553" lon="2.7436">
        <ele>98</ele>
        <time>2023-10-30T15:30:37.964Z</time>
      </trkpt>
      <trkpt lat="50.38536" lon="2.74341">
        <ele>99.8</ele>
        <time>2023-10-30T15:30:40.032Z</time>
      </trkpt>
      <trkpt lat="50.38519" lon="2.74322">
        <ele>102</ele>
        <time>2023-10-30T15:30:42.105Z</time>
      </trkpt>
      <trkpt lat="50.38503" lon="2.74304">
        <ele>103.8</ele>
        <time>2023-10-30T15:30:44.182Z</time>
      </trkpt>
      <trkpt lat="50.38484" lon="2.74283">
        <ele>106.4</ele>
        <time>2023-10-30T15:30:46.265Z</time>
      </trkpt>
      <trkpt lat="50.38468" lon="2.74263">
        <ele>108</ele>
        <time>2023-10-30T15:30:48.353Z</time>
      </trkpt>
      <trkpt lat="50.3846" lon="2.74241">
        <ele>108.4</ele>
        <time>2023-10-30T15:30:50.445Z</time>
      </trkpt>
      <trkpt lat="50.38447" lon="2.74204">
        <ele>108.8</ele>
        <time>2023-10-30T15:30:52.544Z</time>
      </trkpt>
      <trkpt lat="50.38432" lon="2.74172">
        <ele>109</ele>
        <time>2023-10-30T15:30:54.649Z</time>
      </trkpt>
      <trkpt lat="50.38415" lon="2.74141">
        <ele>109</ele>
        <time>2023-10-30T15:30:56.760Z</time>
      </trkpt>
      <trkpt lat="50.38402" lon="2.74119">
        <ele>109.8</ele>
        <time>2023-10-30T15:30:58.876Z</time>
      </trkpt>
      <trkpt lat="50.38389" lon="2.741">
        <ele>110.2</ele>
        <time>2023-10-30T15:31:00.996Z</time>
      </trkpt>
      <trkpt lat="50.38368" lon="2.74071">
        <ele>111.2</ele>
        <time>2023-10-30T15:31:03.123Z</time>
      </trkpt>
      <trkpt lat="50.38341" lon="2.74031">
        <ele>113</ele>
        <time>2023-10-30T15:31:05.259Z</time>
      </trkpt>
      <trkpt lat="50.38324" lon="2.74005">
        <ele>113.4</ele>
        <time>2023-10-30T15:31:07.401Z</time>
      </trkpt>
      <trkpt lat="50.38303" lon="2.7397">
        <ele>113.6</ele>
        <time>2023-10-30T15:31:09.551Z</time>
      </trkpt>
      <trkpt lat="50.38284" lon="2.73937">
        <ele>113.2</ele>
        <time>2023-10-30T15:31:11.707Z</time>
      </trkpt>
      <trkpt lat="50.38281" lon="2.73932">
        <ele>113</ele>
        <time>2023-10-30T15:31:13.864Z</time>
      </trkpt>
      <trkpt lat="50.38278" lon="2.73927">
        <ele>113</ele>
        <time>2023-10-30T15:31:16.022Z</time>
      </trkpt>
      <trkpt lat="50.38264" lon="2.73903">
        <ele>113.4</ele>
        <time>2023-10-30T15:31:18.186Z</time>
      </trkpt>
      <trkpt lat="50.3824" lon="2.73864">
        <ele>114.2</ele>
        <time>2023-10-30T15:31:20.358Z</time>
      </trkpt>
      <trkpt lat="50.38209" lon="2.73823">
        <ele>115.2</ele>
        <time>2023-10-30T15:31:22.540Z</time>
      </trkpt>
      <trkpt lat="50.38176" lon="2.73777">
        <ele>115.8</ele>
        <time>2023-10-30T15:31:24.733Z</time>
      </trkpt>
      <trkpt lat="50.3815" lon="2.73727">
        <ele>116</ele>
        <time>2023-10-30T15:31:26.936Z</time>
      </trkpt>
      <trkpt lat="50.38131" lon="2.73685">
        <ele>115.8</ele>
        <time>2023-10-30T15:31:29.147Z</time>
      </trkpt>
      <trkpt lat="50.38115" lon="2.73646">
        <ele>115.6</ele>
        <time>2023-10-30T15:31:31.365Z</time>
      </trkpt>
      <trkpt lat="50.38107" lon="2.73628">
        <ele>115.4</ele>
        <time>2023-10-30T15:31:33.586Z</time>
      </trkpt>
      <trkpt lat="50.38091" lon="2.73591">
        <ele>116.8</ele>
        <time>2023-10-30T15:31:35.814Z</time>
      </trkpt>
      <trkpt lat="50.38078" lon="2.73542">
        <ele>117.2</ele>
        <time>2023-10-30T15:31:38.051Z</time>
      </trkpt>
      <trkpt lat="50.38066" lon="2.73496">
        <ele>116.6</ele>
        <time>2023-10-30T15:31:40.296Z</time>
      </trkpt>
      <trkpt lat="50.3805" lon="2.73447">
        <ele>116.2</ele>
        <time>2023-10-30T15:31:42.549Z</time>
      </trkpt>
      <trkpt lat="50.38026" lon="2.73387">
        <ele>117.6</ele>
        <time>2023-10-30T15:31:44.813Z</time>
      </trkpt>
      <trkpt lat="50.38009" lon="2.73344">
        <ele>118.2</ele>
        <time>2023-10-30T15:31:47.085Z</time>
      </trkpt>
      <trkpt lat="50.3799" lon="2.73296">
        <ele>118.2</ele>
        <time>2023-10-30T15:31:49.366Z</time>
      </trkpt>
      <trkpt lat="50.3799" lon="2.73296">
        <ele>118.2</ele>
        <time>2023-10-30T15:31:51.647Z</time>
      </trkpt>
      <trkpt lat="50.37974" lon="2.73254">
        <ele>117.8</ele>
        <time>2023-10-30T15:31:53.936Z</time>
      </trkpt>
      <trkpt lat="50.37958" lon="2.73207">
        <ele>119.6</ele>
        <time>2023-10-30T15:31:56.233Z</time>
      </trkpt>
      <trkpt lat="50.37941" lon="2.73158">
        <ele>122</ele>
        <time>2023-10-30T15:31:58.538Z</time>
      </trkpt>
      <trkpt lat="50.3793" lon="2.73112">
        <ele>121.2</ele>
        <time>2023-10-30T15:32:00.851Z</time>
      </trkpt>
      <trkpt lat="50.37921" lon="2.73053">
        <ele>121</ele>
        <time>2023-10-30T15:32:03.174Z</time>
      </trkpt>
      <trkpt lat="50.37914" lon="2.73012">
        <ele>123.6</ele>
        <time>2023-10-30T15:32:05.503Z</time>
      </trkpt>
      <trkpt lat="50.37904" lon="2.72974">
        <ele>125.4</ele>
        <time>2023-10-30T15:32:07.839Z</time>
      </trkpt>
      <trkpt lat="50.37893" lon="2.72938">
        <ele>127.2</ele>
        <time>2023-10-30T15:32:10.181Z</time>
      </trkpt>
      <trkpt lat="50.37888" lon="2.72913">
        <ele>127.8</ele>
        <time>2023-10-30T15:32:12.527Z</time>
      </trkpt>
      <trkpt lat="50.37879" lon="2.72876">
        <ele>128</ele>
        <time>2023-10-30T15:32:14.879Z</time>
      </trkpt>
      <trkpt lat="50.37868" lon="2.72848">
        <ele>128.8</ele>
        <time>2023-10-30T15:32:17.236Z</time>
      </trkpt>
      <trkpt lat="50.37852" lon="2.72818">
        <ele>130</ele>
        <time>2023-10-30T15:32:19.599Z</time>
      </trkpt>
      <trkpt lat="50.37837" lon="2.7279">
        <ele>130.8</ele>
        <time>2023-10-30T15:32:21.968Z</time>
      </trkpt>
      <trkpt lat="50.37817" lon="2.72754">
        <ele>131.4</ele>
        <time>2023-10-30T15:32:24.344Z</time>
      </trkpt>
      <trkpt lat="50.37815" lon="2.72749">
        <ele>131.6</ele>
        <time>2023-10-30T15:32:26.721Z</time>
      </trkpt>
      <trkpt lat="50.37805" lon="2.72723">
        <ele>131.8</ele>
        <time>2023-10-30T15:32:29.103Z</time>
      </trkpt>
      <trkpt lat="50.37792" lon="2.72692">
        <ele>131.4</ele>
        <time>2023-10-30T15:32:31.491Z</time>
      </trkpt>
      <trkpt lat="50.37778" lon="2.72655">
        <ele>132.6</ele>
        <time>2023-10-30T15:32:33.886Z</time>
      </trkpt>
      <trkpt lat="50.37766" lon="2.72617">
        <ele>133.2</ele>
        <time>2023-10-30T15:32:36.287Z</time>
      </trkpt>
      <trkpt lat="50.37757" lon="2.72586">
        <ele>133</ele>
        <time>2023-10-30T15:32:38.694Z</time>
      </trkpt>
      <trkpt lat="50.37742" lon="2.72537">
        <ele>133.2</ele>
        <time>2023-10-30T15:32:41.109Z</time>
      </trkpt>
      <trkpt lat="50.37728" lon="2.72494">
        <ele>135.2</ele>
        <time>2023-10-30T15:32:43.532Z</time>
      </trkpt>
      <trkpt lat="50.37715" lon="2.72458">
        <ele>136.2</ele>
        <time>2023-10-30T15:32:45.961Z</time>
      </trkpt>
      <trkpt lat="50.37695" lon="2.72421">
        <ele>136.8</ele>
        <time>2023-10-30T15:32:48.398Z</time>
      </trkpt>
      <trkpt lat="50.37672" lon="2.72388">
        <ele>137</ele>
        <time>2023-10-30T15:32:50.842Z</time>
      </trkpt>
      <trkpt lat="50.37657" lon="2.72369">
        <ele>137</ele>
        <time>2023-10-30T15:32:53.291Z</time>
      </trkpt>
      <trkpt lat="50.37639" lon="2.72351">
        <ele>137</ele>
        <time>2023-10-30T15:32:55.745Z</time>
      </trkpt>
      <trkpt lat="50.3761" lon="2.72323">
        <ele>136.4</ele>
        <time>2023-10-30T15:32:58.207Z</time>
      </trkpt>
      <trkpt lat="50.37602" lon="2.72315">
        <ele>136.4</ele>
        <time>2023-10-30T15:33:00.672Z</time>
      </trkpt>
      <trkpt lat="50.37584" lon="2.723">
        <ele>136.4</ele>
        <time>2023-10-30T15:33:03.142Z</time>
      </trkpt>
      <trkpt lat="50.37556" lon="2.72274">
        <ele>136</ele>
        <time>2023-10-30T15:33:05.620Z</time>
        <extensions>
          <visugpx:TrkExtension xmlns:visugpx="https://www.visugpx.com/editgpx/">
            <visugpx:node>4</visugpx:node>
            </visugpx:TrkExtension>
        </extensions>
      </trkpt>
      <trkpt lat="50.37538" lon="2.72257">
        <ele>135.7</ele>
      </trkpt>
      <trkpt lat="50.37519" lon="2.72242">
        <ele>136.2</ele>
      </trkpt>
      <trkpt lat="50.37513" lon="2.72238">
        <ele>136.3</ele>
      </trkpt>
      <trkpt lat="50.37496" lon="2.72223">
        <ele>136</ele>
      </trkpt>
      <trkpt lat="50.37491" lon="2.72215">
        <ele>136</ele>
      </trkpt>
      <trkpt lat="50.37484" lon="2.72205">
        <ele>136</ele>
      </trkpt>
      <trkpt lat="50.37472" lon="2.72192">
        <ele>136</ele>
      </trkpt>
      <trkpt lat="50.37461" lon="2.7218">
        <ele>136</ele>
      </trkpt>
      <trkpt lat="50.37449" lon="2.72166">
        <ele>136</ele>
      </trkpt>
      <trkpt lat="50.37437" lon="2.72153">
        <ele>135.4</ele>
      </trkpt>
      <trkpt lat="50.37422" lon="2.72139">
        <ele>135</ele>
      </trkpt>
      <trkpt lat="50.37403" lon="2.72122">
        <ele>134.5</ele>
      </trkpt>
      <trkpt lat="50.37384" lon="2.72104">
        <ele>134</ele>
      </trkpt>
      <trkpt lat="50.37373" lon="2.72093">
        <ele>133.6</ele>
      </trkpt>
      <trkpt lat="50.37363" lon="2.72082">
        <ele>133.1</ele>
      </trkpt>
      <trkpt lat="50.37355" lon="2.7207">
        <ele>132.9</ele>
      </trkpt>
      <trkpt lat="50.37345" lon="2.72056">
        <ele>132.4</ele>
      </trkpt>
      <trkpt lat="50.37333" lon="2.72039">
        <ele>132</ele>
      </trkpt>
      <trkpt lat="50.37318" lon="2.72016">
        <ele>131.4</ele>
      </trkpt>
      <trkpt lat="50.37304" lon="2.71993">
        <ele>130.9</ele>
      </trkpt>
      <trkpt lat="50.37294" lon="2.71979">
        <ele>130.6</ele>
      </trkpt>
      <trkpt lat="50.37285" lon="2.71964">
        <ele>130.3</ele>
      </trkpt>
      <trkpt lat="50.37277" lon="2.71952">
        <ele>130</ele>
      </trkpt>
      <trkpt lat="50.3727" lon="2.71941">
        <ele>129.7</ele>
      </trkpt>
      <trkpt lat="50.37259" lon="2.71931">
        <ele>129.3</ele>
      </trkpt>
      <trkpt lat="50.37247" lon="2.71919">
        <ele>128.9</ele>
      </trkpt>
      <trkpt lat="50.37235" lon="2.71908">
        <ele>128.6</ele>
      </trkpt>
      <trkpt lat="50.37221" lon="2.71896">
        <ele>128.7</ele>
      </trkpt>
      <trkpt lat="50.37204" lon="2.71879">
        <ele>127.9</ele>
      </trkpt>
      <trkpt lat="50.37192" lon="2.71867">
        <ele>127.8</ele>
      </trkpt>
      <trkpt lat="50.37177" lon="2.71852">
        <ele>127.9</ele>
      </trkpt>
      <trkpt lat="50.37156" lon="2.71832">
        <ele>127</ele>
      </trkpt>
      <trkpt lat="50.37139" lon="2.71815">
        <ele>127</ele>
      </trkpt>
      <trkpt lat="50.37127" lon="2.718">
        <ele>126.6</ele>
      </trkpt>
      <trkpt lat="50.37132" lon="2.71791">
        <ele>126.8</ele>
      </trkpt>
      <trkpt lat="50.37139" lon="2.71777">
        <ele>127</ele>
      </trkpt>
      <trkpt lat="50.3715" lon="2.7176">
        <ele>127.4</ele>
      </trkpt>
      <trkpt lat="50.3716" lon="2.71744">
        <ele>127.8</ele>
      </trkpt>
      <trkpt lat="50.37174" lon="2.71727">
        <ele>128.3</ele>
      </trkpt>
      <trkpt lat="50.37185" lon="2.71712">
        <ele>128.4</ele>
      </trkpt>
      <trkpt lat="50.37193" lon="2.717">
        <ele>128.2</ele>
      </trkpt>
      <trkpt lat="50.37198" lon="2.71692">
        <ele>128.2</ele>
      </trkpt>
      <trkpt lat="50.37206" lon="2.71679">
        <ele>128.7</ele>
      </trkpt>
      <trkpt lat="50.37218" lon="2.7166">
        <ele>129</ele>
      </trkpt>
      <trkpt lat="50.37239" lon="2.71626">
        <ele>129.8</ele>
      </trkpt>
      <trkpt lat="50.37261" lon="2.7159">
        <ele>130.3</ele>
      </trkpt>
      <trkpt lat="50.37281" lon="2.7156">
        <ele>131</ele>
      </trkpt>
      <trkpt lat="50.37296" lon="2.71539">
        <ele>131</ele>
      </trkpt>
      <trkpt lat="50.37303" lon="2.71527">
        <ele>131</ele>
      </trkpt>
      <trkpt lat="50.3732" lon="2.71507">
        <ele>131.5</ele>
      </trkpt>
      <trkpt lat="50.37345" lon="2.71476">
        <ele>132.4</ele>
      </trkpt>
      <trkpt lat="50.37351" lon="2.7147">
        <ele>132.7</ele>
      </trkpt>
      <trkpt lat="50.37367" lon="2.7145">
        <ele>133</ele>
      </trkpt>
      <trkpt lat="50.3739" lon="2.71423">
        <ele>133</ele>
      </trkpt>
      <trkpt lat="50.37405" lon="2.71405">
        <ele>133.2</ele>
      </trkpt>
      <trkpt lat="50.37415" lon="2.7139">
        <ele>133.9</ele>
      </trkpt>
      <trkpt lat="50.37428" lon="2.71371">
        <ele>133.2</ele>
      </trkpt>
      <trkpt lat="50.37441" lon="2.71349">
        <ele>133</ele>
      </trkpt>
      <trkpt lat="50.37458" lon="2.71317">
        <ele>133</ele>
      </trkpt>
      <trkpt lat="50.37472" lon="2.71286">
        <ele>132.3</ele>
      </trkpt>
      <trkpt lat="50.37482" lon="2.71257">
        <ele>131.6</ele>
      </trkpt>
      <trkpt lat="50.37494" lon="2.71225">
        <ele>130.5</ele>
      </trkpt>
      <trkpt lat="50.37505" lon="2.7119">
        <ele>129.8</ele>
      </trkpt>
      <trkpt lat="50.37514" lon="2.71162">
        <ele>128.9</ele>
      </trkpt>
      <trkpt lat="50.3752" lon="2.71141">
        <ele>128.3</ele>
      </trkpt>
      <trkpt lat="50.37526" lon="2.71121">
        <ele>127.5</ele>
      </trkpt>
      <trkpt lat="50.37531" lon="2.71098">
        <ele>126.9</ele>
      </trkpt>
      <trkpt lat="50.37536" lon="2.71074">
        <ele>126.6</ele>
      </trkpt>
      <trkpt lat="50.37541" lon="2.71054">
        <ele>126</ele>
      </trkpt>
      <trkpt lat="50.37548" lon="2.71037">
        <ele>125.1</ele>
      </trkpt>
      <trkpt lat="50.37556" lon="2.71019">
        <ele>124</ele>
      </trkpt>
      <trkpt lat="50.37564" lon="2.71003">
        <ele>123.4</ele>
      </trkpt>
      <trkpt lat="50.37572" lon="2.70986">
        <ele>122.8</ele>
      </trkpt>
      <trkpt lat="50.3758" lon="2.70969">
        <ele>122.1</ele>
      </trkpt>
      <trkpt lat="50.37587" lon="2.70955">
        <ele>121.3</ele>
      </trkpt>
      <trkpt lat="50.37593" lon="2.70941">
        <ele>121.1</ele>
      </trkpt>
      <trkpt lat="50.37599" lon="2.7093">
        <ele>121.5</ele>
      </trkpt>
      <trkpt lat="50.37608" lon="2.70916">
        <ele>122</ele>
      </trkpt>
      <trkpt lat="50.37618" lon="2.70898">
        <ele>122.7</ele>
      </trkpt>
      <trkpt lat="50.37628" lon="2.70881">
        <ele>123.3</ele>
      </trkpt>
      <trkpt lat="50.3764" lon="2.70861">
        <ele>124</ele>
      </trkpt>
      <trkpt lat="50.37648" lon="2.70851">
        <ele>123.7</ele>
      </trkpt>
      <trkpt lat="50.3765" lon="2.70847">
        <ele>123.6</ele>
      </trkpt>
      <trkpt lat="50.37666" lon="2.70827">
        <ele>123.2</ele>
      </trkpt>
      <trkpt lat="50.37677" lon="2.70811">
        <ele>123.5</ele>
      </trkpt>
      <trkpt lat="50.37687" lon="2.70797">
        <ele>123.2</ele>
      </trkpt>
      <trkpt lat="50.37697" lon="2.70782">
        <ele>122.9</ele>
      </trkpt>
      <trkpt lat="50.37712" lon="2.70763">
        <ele>122</ele>
      </trkpt>
      <trkpt lat="50.37726" lon="2.70746">
        <ele>121</ele>
      </trkpt>
      <trkpt lat="50.37738" lon="2.70732">
        <ele>120.7</ele>
      </trkpt>
      <trkpt lat="50.37748" lon="2.7072">
        <ele>120.1</ele>
      </trkpt>
      <trkpt lat="50.37761" lon="2.70702">
        <ele>119.3</ele>
      </trkpt>
      <trkpt lat="50.37769" lon="2.70689">
        <ele>118.7</ele>
      </trkpt>
      <trkpt lat="50.37777" lon="2.70675">
        <ele>118.1</ele>
      </trkpt>
      <trkpt lat="50.37781" lon="2.70669">
        <ele>117.9</ele>
        <extensions>
          <visugpx:TrkExtension xmlns:visugpx="https://www.visugpx.com/editgpx/">
            <visugpx:node>3</visugpx:node>
            </visugpx:TrkExtension>
        </extensions>
      </trkpt>
      <trkpt lat="50.37786" lon="2.7066">
        <ele>117.8</ele>
      </trkpt>
      <trkpt lat="50.37798" lon="2.70642">
        <ele>116.9</ele>
      </trkpt>
      <trkpt lat="50.37807" lon="2.70626">
        <ele>116.4</ele>
      </trkpt>
      <trkpt lat="50.37819" lon="2.70604">
        <ele>116</ele>
      </trkpt>
      <trkpt lat="50.37826" lon="2.70593">
        <ele>115.2</ele>
      </trkpt>
      <trkpt lat="50.3783" lon="2.70585">
        <ele>114.5</ele>
      </trkpt>
      <trkpt lat="50.3784" lon="2.70569">
        <ele>114</ele>
      </trkpt>
      <trkpt lat="50.37848" lon="2.70552">
        <ele>113.4</ele>
      </trkpt>
      <trkpt lat="50.37852" lon="2.70543">
        <ele>112.8</ele>
      </trkpt>
      <trkpt lat="50.37856" lon="2.70535">
        <ele>112.1</ele>
      </trkpt>
      <trkpt lat="50.37858" lon="2.70529">
        <ele>111.6</ele>
      </trkpt>
      <trkpt lat="50.37862" lon="2.70525">
        <ele>111.1</ele>
      </trkpt>
      <trkpt lat="50.37857" lon="2.70515">
        <ele>112.1</ele>
      </trkpt>
      <trkpt lat="50.37863" lon="2.7051">
        <ele>111.5</ele>
      </trkpt>
      <trkpt lat="50.37867" lon="2.70505">
        <ele>111.3</ele>
      </trkpt>
      <trkpt lat="50.37875" lon="2.70497">
        <ele>110.6</ele>
      </trkpt>
      <trkpt lat="50.37887" lon="2.70487">
        <ele>109.2</ele>
      </trkpt>
      <trkpt lat="50.37901" lon="2.70475">
        <ele>107.7</ele>
      </trkpt>
      <trkpt lat="50.37916" lon="2.70461">
        <ele>106.1</ele>
      </trkpt>
      <trkpt lat="50.37939" lon="2.70439">
        <ele>103.5</ele>
      </trkpt>
      <trkpt lat="50.37944" lon="2.70452">
        <ele>103</ele>
      </trkpt>
      <trkpt lat="50.3795" lon="2.70465">
        <ele>102.8</ele>
      </trkpt>
      <trkpt lat="50.37949" lon="2.70439">
        <ele>102.8</ele>
      </trkpt>
      <trkpt lat="50.37948" lon="2.70425">
        <ele>102.9</ele>
      </trkpt>
      <trkpt lat="50.37947" lon="2.70412">
        <ele>102.7</ele>
      </trkpt>
      <trkpt lat="50.37943" lon="2.70396">
        <ele>102.4</ele>
      </trkpt>
      <trkpt lat="50.37939" lon="2.70382">
        <ele>102.4</ele>
      </trkpt>
      <trkpt lat="50.37935" lon="2.70368">
        <ele>102.5</ele>
      </trkpt>
      <trkpt lat="50.37932" lon="2.70357">
        <ele>102.6</ele>
      </trkpt>
      <trkpt lat="50.37931" lon="2.70354">
        <ele>102.6</ele>
      </trkpt>
      <trkpt lat="50.3793" lon="2.7035">
        <ele>102.5</ele>
      </trkpt>
      <trkpt lat="50.37928" lon="2.70338">
        <ele>102</ele>
      </trkpt>
      <trkpt lat="50.37925" lon="2.70319">
        <ele>101.3</ele>
      </trkpt>
      <trkpt lat="50.37925" lon="2.70318">
        <ele>101.2</ele>
        <extensions>
          <visugpx:TrkExtension xmlns:visugpx="https://www.visugpx.com/editgpx/">
            <visugpx:node>2</visugpx:node>
            </visugpx:TrkExtension>
        </extensions>
      </trkpt>
      <trkpt lat="50.3792" lon="2.70286">
        <ele>99.9</ele>
      </trkpt>
      <trkpt lat="50.37913" lon="2.70242">
        <ele>99.9</ele>
      </trkpt>
      <trkpt lat="50.37908" lon="2.70205">
        <ele>100.3</ele>
      </trkpt>
      <trkpt lat="50.37904" lon="2.70173">
        <ele>95.9</ele>
      </trkpt>
      <trkpt lat="50.379" lon="2.70147">
        <ele>95.1</ele>
      </trkpt>
      <trkpt lat="50.37898" lon="2.70128">
        <ele>95.3</ele>
      </trkpt>
      <trkpt lat="50.37898" lon="2.70123">
        <ele>95.3</ele>
      </trkpt>
      <trkpt lat="50.37904" lon="2.70136">
        <ele>94.9</ele>
      </trkpt>
      <trkpt lat="50.37911" lon="2.70152">
        <ele>94</ele>
      </trkpt>
      <trkpt lat="50.37916" lon="2.70165">
        <ele>93.1</ele>
      </trkpt>
      <trkpt lat="50.37921" lon="2.70177">
        <ele>94.3</ele>
      </trkpt>
      <trkpt lat="50.37925" lon="2.70191">
        <ele>95.2</ele>
      </trkpt>
      <trkpt lat="50.3793" lon="2.70206">
        <ele>94.8</ele>
      </trkpt>
      <trkpt lat="50.37936" lon="2.70222">
        <ele>93.8</ele>
      </trkpt>
      <trkpt lat="50.3794" lon="2.70236">
        <ele>92.6</ele>
      </trkpt>
      <trkpt lat="50.37944" lon="2.70244">
        <ele>91.3</ele>
      </trkpt>
      <trkpt lat="50.37948" lon="2.70253">
        <ele>91.2</ele>
      </trkpt>
      <trkpt lat="50.37955" lon="2.70264">
        <ele>91.7</ele>
      </trkpt>
      <trkpt lat="50.37963" lon="2.70271">
        <ele>91.6</ele>
      </trkpt>
      <trkpt lat="50.37968" lon="2.70272">
        <ele>91.2</ele>
      </trkpt>
      <trkpt lat="50.37975" lon="2.70271">
        <ele>90.7</ele>
      </trkpt>
      <trkpt lat="50.37983" lon="2.70265">
        <ele>90.5</ele>
      </trkpt>
      <trkpt lat="50.3799" lon="2.70259">
        <ele>90.5</ele>
      </trkpt>
      <trkpt lat="50.37994" lon="2.70257">
        <ele>90.6</ele>
      </trkpt>
      <trkpt lat="50.38" lon="2.70255">
        <ele>90.8</ele>
      </trkpt>
      <trkpt lat="50.38003" lon="2.70255">
        <ele>90.9</ele>
      </trkpt>
      <trkpt lat="50.38006" lon="2.70256">
        <ele>91</ele>
      </trkpt>
      <trkpt lat="50.38009" lon="2.70259">
        <ele>91</ele>
      </trkpt>
      <trkpt lat="50.38014" lon="2.70267">
        <ele>90.9</ele>
      </trkpt>
      <trkpt lat="50.38025" lon="2.70291">
        <ele>90.9</ele>
        <extensions>
          <visugpx:TrkExtension xmlns:visugpx="https://www.visugpx.com/editgpx/">
            <visugpx:node>1</visugpx:node>
            </visugpx:TrkExtension>
        </extensions>
      </trkpt>
      <trkpt lat="50.38034" lon="2.70312">
        <ele>91.2</ele>
      </trkpt>
      <trkpt lat="50.38038" lon="2.70323">
        <ele>91.1</ele>
      </trkpt>
      <trkpt lat="50.38039" lon="2.70327">
        <ele>91.1</ele>
        <extensions>
          <visugpx:TrkExtension xmlns:visugpx="https://www.visugpx.com/editgpx/">
            <visugpx:node>6</visugpx:node>
            </visugpx:TrkExtension>
        </extensions>
      </trkpt>
      <trkpt lat="50.3804" lon="2.7033">
        <ele>91.1</ele>
        <extensions>
          <visugpx:TrkExtension xmlns:visugpx="https://www.visugpx.com/editgpx/">
            <visugpx:node>5</visugpx:node>
            </visugpx:TrkExtension>
        </extensions>
      </trkpt>
      <trkpt lat="50.38041" lon="2.70335">
        <ele>91</ele>
      </trkpt>
      <trkpt lat="50.38041" lon="2.70336">
        <ele>90.9</ele>
        <extensions>
          <visugpx:TrkExtension xmlns:visugpx="https://www.visugpx.com/editgpx/">
            <visugpx:node>4</visugpx:node>
            </visugpx:TrkExtension>
        </extensions>
      </trkpt>
      <trkpt lat="50.38041" lon="2.70344">
        <ele>90.8</ele>
        <extensions>
          <visugpx:TrkExtension xmlns:visugpx="https://www.visugpx.com/editgpx/">
            <visugpx:node>3</visugpx:node>
            </visugpx:TrkExtension>
        </extensions>
      </trkpt>
      <trkpt lat="50.38041" lon="2.70344">
        <ele>90.8</ele>
      </trkpt>
      <trkpt lat="50.38042" lon="2.70349">
        <ele>90.7</ele>
        <extensions>
          <visugpx:TrkExtension xmlns:visugpx="https://www.visugpx.com/editgpx/">
            <visugpx:node>2</visugpx:node>
            </visugpx:TrkExtension>
        </extensions>
      </trkpt>
      <trkpt lat="50.38042" lon="2.70354">
        <ele>92.4</ele>
        <time>2023-10-30T15:36:29.602Z</time>
        <extensions>
          <visugpx:TrkExtension xmlns:visugpx="https://www.visugpx.com/editgpx/">
            <visugpx:node>1</visugpx:node>
            </visugpx:TrkExtension>
        </extensions>
      </trkpt>
      <trkpt lat="50.38052" lon="2.70377">
        <ele>92</ele>
        <time>2023-10-30T15:36:32.514Z</time>
      </trkpt>
      <trkpt lat="50.38064" lon="2.70406">
        <ele>92</ele>
        <time>2023-10-30T15:36:35.432Z</time>
      </trkpt>
      <trkpt lat="50.38076" lon="2.70439">
        <ele>92.2</ele>
        <time>2023-10-30T15:36:38.356Z</time>
      </trkpt>
      <trkpt lat="50.38071" lon="2.70444">
        <ele>92.4</ele>
        <time>2023-10-30T15:36:41.281Z</time>
      </trkpt>
      <trkpt lat="50.38068" lon="2.70447">
        <ele>92.4</ele>
        <time>2023-10-30T15:36:44.207Z</time>
      </trkpt>
      <trkpt lat="50.38047" lon="2.70465">
        <ele>93.6</ele>
        <time>2023-10-30T15:36:47.139Z</time>
      </trkpt>
      <trkpt lat="50.38035" lon="2.70477">
        <ele>95.4</ele>
        <time>2023-10-30T15:36:50.074Z</time>
      </trkpt>
      <trkpt lat="50.38019" lon="2.70491">
        <ele>97.6</ele>
        <time>2023-10-30T15:36:53.014Z</time>
      </trkpt>
      <trkpt lat="50.38003" lon="2.70506">
        <ele>99.4</ele>
        <time>2023-10-30T15:36:55.958Z</time>
      </trkpt>
      <trkpt lat="50.37987" lon="2.7052">
        <ele>100.8</ele>
        <time>2023-10-30T15:36:58.907Z</time>
      </trkpt>
      <trkpt lat="50.37976" lon="2.70529">
        <ele>101</ele>
        <time>2023-10-30T15:37:01.859Z</time>
      </trkpt>
      <trkpt lat="50.37974" lon="2.7053">
        <ele>101</ele>
        <time>2023-10-30T15:37:04.811Z</time>
      </trkpt>
      <trkpt lat="50.37968" lon="2.70538">
        <ele>101.2</ele>
        <time>2023-10-30T15:37:07.765Z</time>
      </trkpt>
      <trkpt lat="50.37969" lon="2.70553">
        <ele>101</ele>
        <time>2023-10-30T15:37:10.722Z</time>
      </trkpt>
      <trkpt lat="50.37973" lon="2.70596">
        <ele>100.6</ele>
        <time>2023-10-30T15:37:13.685Z</time>
      </trkpt>
      <trkpt lat="50.37979" lon="2.70658">
        <ele>99.2</ele>
        <time>2023-10-30T15:37:16.658Z</time>
      </trkpt>
      <trkpt lat="50.37984" lon="2.70714">
        <ele>99</ele>
        <time>2023-10-30T15:37:19.640Z</time>
      </trkpt>
      <trkpt lat="50.37986" lon="2.70757">
        <ele>98.4</ele>
        <time>2023-10-30T15:37:22.629Z</time>
      </trkpt>
      <trkpt lat="50.37987" lon="2.70773">
        <ele>97.8</ele>
        <time>2023-10-30T15:37:25.620Z</time>
      </trkpt>
      <trkpt lat="50.37991" lon="2.7082">
        <ele>97.8</ele>
        <time>2023-10-30T15:37:28.619Z</time>
      </trkpt>
      <trkpt lat="50.37995" lon="2.70873">
        <ele>97.2</ele>
        <time>2023-10-30T15:37:31.626Z</time>
      </trkpt>
      <trkpt lat="50.38" lon="2.70887">
        <ele>96.8</ele>
        <time>2023-10-30T15:37:34.635Z</time>
      </trkpt>
      <trkpt lat="50.38007" lon="2.70908">
        <ele>96.8</ele>
        <time>2023-10-30T15:37:37.648Z</time>
      </trkpt>
      <trkpt lat="50.38014" lon="2.70922">
        <ele>96.8</ele>
        <time>2023-10-30T15:37:40.664Z</time>
      </trkpt>
      <trkpt lat="50.38027" lon="2.70938">
        <ele>95.8</ele>
        <time>2023-10-30T15:37:43.684Z</time>
      </trkpt>
      <trkpt lat="50.3806" lon="2.70981">
        <ele>93.6</ele>
        <time>2023-10-30T15:37:46.715Z</time>
      </trkpt>
      <trkpt lat="50.38095" lon="2.71031">
        <ele>91</ele>
        <time>2023-10-30T15:37:49.757Z</time>
      </trkpt>
      <trkpt lat="50.38105" lon="2.71046">
        <ele>89.8</ele>
        <time>2023-10-30T15:37:52.802Z</time>
      </trkpt>
      <trkpt lat="50.38105" lon="2.71046">
        <ele>89.8</ele>
        <time>2023-10-30T15:37:55.847Z</time>
      </trkpt>
      <trkpt lat="50.38126" lon="2.71071">
        <ele>88.8</ele>
        <time>2023-10-30T15:37:58.899Z</time>
      </trkpt>
      <trkpt lat="50.38167" lon="2.71122">
        <ele>88.2</ele>
        <time>2023-10-30T15:38:01.964Z</time>
      </trkpt>
      <trkpt lat="50.38193" lon="2.71156">
        <ele>88.8</ele>
        <time>2023-10-30T15:38:05.037Z</time>
      </trkpt>
      <trkpt lat="50.38198" lon="2.71162">
        <ele>89</ele>
        <time>2023-10-30T15:38:08.111Z</time>
      </trkpt>
      <trkpt lat="50.38225" lon="2.71206">
        <ele>90.8</ele>
        <time>2023-10-30T15:38:11.195Z</time>
      </trkpt>
      <trkpt lat="50.3825" lon="2.71249">
        <ele>93.8</ele>
        <time>2023-10-30T15:38:14.288Z</time>
      </trkpt>
      <trkpt lat="50.38274" lon="2.71289">
        <ele>95.6</ele>
        <time>2023-10-30T15:38:17.390Z</time>
      </trkpt>
      <trkpt lat="50.38294" lon="2.71321">
        <ele>94.8</ele>
        <time>2023-10-30T15:38:20.499Z</time>
      </trkpt>
      <trkpt lat="50.38304" lon="2.71337">
        <ele>94.4</ele>
        <time>2023-10-30T15:38:23.611Z</time>
      </trkpt>
      <trkpt lat="50.3831" lon="2.71345">
        <ele>94.2</ele>
        <time>2023-10-30T15:38:26.725Z</time>
      </trkpt>
      <trkpt lat="50.38323" lon="2.71363">
        <ele>93.8</ele>
        <time>2023-10-30T15:38:29.843Z</time>
      </trkpt>
      <trkpt lat="50.38332" lon="2.71376">
        <ele>93.6</ele>
        <time>2023-10-30T15:38:32.964Z</time>
      </trkpt>
      <trkpt lat="50.38339" lon="2.71386">
        <ele>93.6</ele>
        <time>2023-10-30T15:38:36.087Z</time>
      </trkpt>
      <trkpt lat="50.38343" lon="2.71392">
        <ele>93.6</ele>
        <time>2023-10-30T15:38:39.212Z</time>
      </trkpt>
      <trkpt lat="50.38351" lon="2.71406">
        <ele>93.4</ele>
        <time>2023-10-30T15:38:42.340Z</time>
      </trkpt>
      <trkpt lat="50.38354" lon="2.71412">
        <ele>93.4</ele>
        <time>2023-10-30T15:38:45.469Z</time>
      </trkpt>
      <trkpt lat="50.38368" lon="2.7144">
        <ele>93</ele>
        <time>2023-10-30T15:38:48.604Z</time>
      </trkpt>
      <trkpt lat="50.38373" lon="2.71454">
        <ele>93</ele>
        <time>2023-10-30T15:38:51.741Z</time>
      </trkpt>
      <trkpt lat="50.38391" lon="2.71517">
        <ele>92.2</ele>
        <time>2023-10-30T15:38:54.889Z</time>
      </trkpt>
      <trkpt lat="50.38396" lon="2.71544">
        <ele>91.8</ele>
        <time>2023-10-30T15:38:58.041Z</time>
      </trkpt>
      <trkpt lat="50.38398" lon="2.71557">
        <ele>91.8</ele>
        <time>2023-10-30T15:39:01.195Z</time>
      </trkpt>
      <trkpt lat="50.38403" lon="2.716">
        <ele>91.2</ele>
        <time>2023-10-30T15:39:04.356Z</time>
      </trkpt>
      <trkpt lat="50.38403" lon="2.71606">
        <ele>91.2</ele>
        <time>2023-10-30T15:39:07.518Z</time>
      </trkpt>
      <trkpt lat="50.38405" lon="2.71619">
        <ele>91.4</ele>
        <time>2023-10-30T15:39:10.682Z</time>
      </trkpt>
      <trkpt lat="50.38407" lon="2.71643">
        <ele>91.6</ele>
        <time>2023-10-30T15:39:13.850Z</time>
      </trkpt>
      <trkpt lat="50.38413" lon="2.71681">
        <ele>92.2</ele>
        <time>2023-10-30T15:39:17.024Z</time>
      </trkpt>
      <trkpt lat="50.38423" lon="2.71701">
        <ele>93</ele>
        <time>2023-10-30T15:39:20.202Z</time>
      </trkpt>
      <trkpt lat="50.38422" lon="2.71724">
        <ele>93</ele>
        <time>2023-10-30T15:39:23.384Z</time>
      </trkpt>
      <trkpt lat="50.38425" lon="2.71747">
        <ele>92.4</ele>
        <time>2023-10-30T15:39:26.569Z</time>
      </trkpt>
      <trkpt lat="50.3843" lon="2.71784">
        <ele>91</ele>
        <time>2023-10-30T15:39:29.760Z</time>
      </trkpt>
      <trkpt lat="50.38436" lon="2.7183">
        <ele>89.2</ele>
        <time>2023-10-30T15:39:32.958Z</time>
      </trkpt>
      <trkpt lat="50.38436" lon="2.71837">
        <ele>89</ele>
        <time>2023-10-30T15:39:36.158Z</time>
      </trkpt>
      <trkpt lat="50.38443" lon="2.71887">
        <ele>87.4</ele>
        <time>2023-10-30T15:39:39.366Z</time>
      </trkpt>
      <trkpt lat="50.3845" lon="2.71943">
        <ele>86.6</ele>
        <time>2023-10-30T15:39:42.582Z</time>
      </trkpt>
      <trkpt lat="50.38452" lon="2.71954">
        <ele>86.8</ele>
        <time>2023-10-30T15:39:45.800Z</time>
      </trkpt>
      <trkpt lat="50.38455" lon="2.71968">
        <ele>87.2</ele>
        <time>2023-10-30T15:39:49.020Z</time>
      </trkpt>
      <trkpt lat="50.38471" lon="2.72013">
        <ele>88.2</ele>
        <time>2023-10-30T15:39:52.249Z</time>
      </trkpt>
      <trkpt lat="50.38487" lon="2.72054">
        <ele>89</ele>
        <time>2023-10-30T15:39:55.485Z</time>
      </trkpt>
      <trkpt lat="50.3849" lon="2.72061">
        <ele>89</ele>
        <time>2023-10-30T15:39:58.722Z</time>
      </trkpt>
      <trkpt lat="50.38498" lon="2.72082">
        <ele>89.6</ele>
        <time>2023-10-30T15:40:01.963Z</time>
      </trkpt>
      <trkpt lat="50.3851" lon="2.72111">
        <ele>89.4</ele>
        <time>2023-10-30T15:40:05.210Z</time>
      </trkpt>
      <trkpt lat="50.38512" lon="2.72118">
        <ele>89.4</ele>
        <time>2023-10-30T15:40:08.458Z</time>
      </trkpt>
      <trkpt lat="50.38529" lon="2.72162">
        <ele>88</ele>
        <time>2023-10-30T15:40:11.714Z</time>
      </trkpt>
      <trkpt lat="50.38536" lon="2.72181">
        <ele>87.2</ele>
        <time>2023-10-30T15:40:14.973Z</time>
      </trkpt>
      <trkpt lat="50.38546" lon="2.72207">
        <ele>87.2</ele>
        <time>2023-10-30T15:40:18.237Z</time>
      </trkpt>
      <trkpt lat="50.38556" lon="2.72235">
        <ele>88.2</ele>
        <time>2023-10-30T15:40:21.506Z</time>
      </trkpt>
      <trkpt lat="50.38564" lon="2.72253">
        <ele>88.8</ele>
        <time>2023-10-30T15:40:24.778Z</time>
      </trkpt>
      <trkpt lat="50.38576" lon="2.72281">
        <ele>90</ele>
        <time>2023-10-30T15:40:28.056Z</time>
      </trkpt>
      <trkpt lat="50.38598" lon="2.72325">
        <ele>88.2</ele>
        <time>2023-10-30T15:40:31.342Z</time>
      </trkpt>
      <trkpt lat="50.38622" lon="2.72368">
        <ele>87.6</ele>
        <time>2023-10-30T15:40:34.637Z</time>
      </trkpt>
      <trkpt lat="50.38653" lon="2.72414">
        <ele>90.2</ele>
        <time>2023-10-30T15:40:37.943Z</time>
      </trkpt>
      <trkpt lat="50.38663" lon="2.7243">
        <ele>90.2</ele>
        <time>2023-10-30T15:40:41.252Z</time>
      </trkpt>
      <trkpt lat="50.3867" lon="2.7245">
        <ele>90.6</ele>
        <time>2023-10-30T15:40:44.565Z</time>
      </trkpt>
      <trkpt lat="50.38672" lon="2.72463">
        <ele>90.4</ele>
        <time>2023-10-30T15:40:47.880Z</time>
      </trkpt>
      <trkpt lat="50.38677" lon="2.72488">
        <ele>90.2</ele>
        <time>2023-10-30T15:40:51.199Z</time>
      </trkpt>
      <trkpt lat="50.38683" lon="2.72517">
        <ele>89</ele>
        <time>2023-10-30T15:40:54.523Z</time>
      </trkpt>
      <trkpt lat="50.38687" lon="2.72541">
        <ele>88.4</ele>
        <time>2023-10-30T15:40:57.851Z</time>
      </trkpt>
      <trkpt lat="50.3869" lon="2.72551">
        <ele>88.2</ele>
        <time>2023-10-30T15:41:01.180Z</time>
      </trkpt>
      <trkpt lat="50.38695" lon="2.72556">
        <ele>87.6</ele>
        <time>2023-10-30T15:41:04.511Z</time>
      </trkpt>
      <trkpt lat="50.38699" lon="2.72551">
        <ele>87.2</ele>
        <time>2023-10-30T15:41:07.843Z</time>
      </trkpt>
      <trkpt lat="50.3871" lon="2.72534">
        <ele>86.6</ele>
        <time>2023-10-30T15:41:11.179Z</time>
      </trkpt>
      <trkpt lat="50.38723" lon="2.72514">
        <ele>85.8</ele>
        <time>2023-10-30T15:41:14.519Z</time>
      </trkpt>
      <trkpt lat="50.38738" lon="2.72491">
        <ele>86.2</ele>
        <time>2023-10-30T15:41:17.864Z</time>
      </trkpt>
      <trkpt lat="50.38756" lon="2.72462">
        <ele>87.2</ele>
        <time>2023-10-30T15:41:21.216Z</time>
      </trkpt>
      <trkpt lat="50.38771" lon="2.72434">
        <ele>87.6</ele>
        <time>2023-10-30T15:41:24.573Z</time>
      </trkpt>
      <trkpt lat="50.38789" lon="2.72407">
        <ele>88.6</ele>
        <time>2023-10-30T15:41:27.936Z</time>
      </trkpt>
      <trkpt lat="50.38814" lon="2.72364">
        <ele>89.2</ele>
        <time>2023-10-30T15:41:31.309Z</time>
      </trkpt>
      <trkpt lat="50.38838" lon="2.72324">
        <ele>90.6</ele>
        <time>2023-10-30T15:41:34.690Z</time>
      </trkpt>
      <trkpt lat="50.38864" lon="2.7228">
        <ele>91.2</ele>
        <time>2023-10-30T15:41:38.080Z</time>
      </trkpt>
      <trkpt lat="50.38888" lon="2.72243">
        <ele>91.4</ele>
        <time>2023-10-30T15:41:41.479Z</time>
      </trkpt>
      <trkpt lat="50.38914" lon="2.72206">
        <ele>91</ele>
        <time>2023-10-30T15:41:44.886Z</time>
      </trkpt>
      <trkpt lat="50.38953" lon="2.72152">
        <ele>89.6</ele>
        <time>2023-10-30T15:41:48.306Z</time>
      </trkpt>
      <trkpt lat="50.38996" lon="2.72108">
        <ele>90.4</ele>
        <time>2023-10-30T15:41:51.738Z</time>
      </trkpt>
      <trkpt lat="50.39034" lon="2.72072">
        <ele>90.2</ele>
        <time>2023-10-30T15:41:55.181Z</time>
      </trkpt>
      <trkpt lat="50.39041" lon="2.72069">
        <ele>90.2</ele>
        <time>2023-10-30T15:41:58.626Z</time>
      </trkpt>
      <trkpt lat="50.39053" lon="2.72072">
        <ele>89.6</ele>
        <time>2023-10-30T15:42:02.074Z</time>
      </trkpt>
      <trkpt lat="50.39099" lon="2.72085">
        <ele>87.4</ele>
        <time>2023-10-30T15:42:05.534Z</time>
      </trkpt>
      <trkpt lat="50.39105" lon="2.72083">
        <ele>87</ele>
        <time>2023-10-30T15:42:08.995Z</time>
      </trkpt>
      <trkpt lat="50.39115" lon="2.72073">
        <ele>85.8</ele>
        <time>2023-10-30T15:42:12.459Z</time>
      </trkpt>
      <trkpt lat="50.39118" lon="2.72053">
        <ele>85.6</ele>
        <time>2023-10-30T15:42:15.926Z</time>
      </trkpt>
      <trkpt lat="50.39119" lon="2.72042">
        <ele>85.4</ele>
        <time>2023-10-30T15:42:19.395Z</time>
      </trkpt>
      <trkpt lat="50.39122" lon="2.72011">
        <ele>85</ele>
        <time>2023-10-30T15:42:22.869Z</time>
      </trkpt>
      <trkpt lat="50.39125" lon="2.71993">
        <ele>84.8</ele>
        <time>2023-10-30T15:42:26.346Z</time>
      </trkpt>
      <trkpt lat="50.3914" lon="2.71993">
        <ele>83.8</ele>
        <time>2023-10-30T15:42:29.826Z</time>
      </trkpt>
      <trkpt lat="50.39146" lon="2.71992">
        <ele>83.6</ele>
        <time>2023-10-30T15:42:33.308Z</time>
      </trkpt>
      <trkpt lat="50.39184" lon="2.71987">
        <ele>84</ele>
        <time>2023-10-30T15:42:36.799Z</time>
      </trkpt>
      <trkpt lat="50.39228" lon="2.71983">
        <ele>84</ele>
        <time>2023-10-30T15:42:40.301Z</time>
      </trkpt>
      <trkpt lat="50.39239" lon="2.7199">
        <ele>84</ele>
        <time>2023-10-30T15:42:43.806Z</time>
      </trkpt>
      <trkpt lat="50.39244" lon="2.71995">
        <ele>84</ele>
        <time>2023-10-30T15:42:47.313Z</time>
      </trkpt>
      <trkpt lat="50.39249" lon="2.71999">
        <ele>84</ele>
        <time>2023-10-30T15:42:50.821Z</time>
      </trkpt>
      <trkpt lat="50.39257" lon="2.72013">
        <ele>84.6</ele>
        <time>2023-10-30T15:42:54.332Z</time>
      </trkpt>
      <trkpt lat="50.39261" lon="2.7202">
        <ele>85</ele>
        <time>2023-10-30T15:42:57.844Z</time>
      </trkpt>
      <trkpt lat="50.39264" lon="2.72028">
        <ele>85.4</ele>
        <time>2023-10-30T15:43:01.358Z</time>
      </trkpt>
      <trkpt lat="50.39266" lon="2.72043">
        <ele>85.6</ele>
        <time>2023-10-30T15:43:04.874Z</time>
      </trkpt>
      <trkpt lat="50.39267" lon="2.72049">
        <ele>85.8</ele>
        <time>2023-10-30T15:43:08.391Z</time>
      </trkpt>
      <trkpt lat="50.39266" lon="2.72062">
        <ele>85.6</ele>
        <time>2023-10-30T15:43:11.910Z</time>
      </trkpt>
      <trkpt lat="50.39265" lon="2.72076">
        <ele>85.6</ele>
        <time>2023-10-30T15:43:15.431Z</time>
      </trkpt>
      <trkpt lat="50.39265" lon="2.72083">
        <ele>85.8</ele>
        <time>2023-10-30T15:43:18.953Z</time>
      </trkpt>
      <trkpt lat="50.39265" lon="2.7209">
        <ele>86</ele>
        <time>2023-10-30T15:43:22.476Z</time>
      </trkpt>
      <trkpt lat="50.39276" lon="2.72098">
        <ele>86</ele>
        <time>2023-10-30T15:43:26.002Z</time>
      </trkpt>
      <trkpt lat="50.39285" lon="2.72103">
        <ele>86.4</ele>
        <time>2023-10-30T15:43:29.531Z</time>
      </trkpt>
      <trkpt lat="50.39299" lon="2.72111">
        <ele>87</ele>
        <time>2023-10-30T15:43:33.063Z</time>
      </trkpt>
      <trkpt lat="50.39311" lon="2.72118">
        <ele>87.6</ele>
        <time>2023-10-30T15:43:36.598Z</time>
      </trkpt>
      <trkpt lat="50.39313" lon="2.7212">
        <ele>87.6</ele>
        <time>2023-10-30T15:43:40.134Z</time>
      </trkpt>
      <trkpt lat="50.39319" lon="2.72123">
        <ele>88</ele>
        <time>2023-10-30T15:43:43.672Z</time>
      </trkpt>
      <trkpt lat="50.39331" lon="2.72125">
        <ele>88.8</ele>
        <time>2023-10-30T15:43:47.213Z</time>
      </trkpt>
      <trkpt lat="50.39347" lon="2.72122">
        <ele>89.4</ele>
        <time>2023-10-30T15:43:50.758Z</time>
      </trkpt>
      <trkpt lat="50.39366" lon="2.72121">
        <ele>90.2</ele>
        <time>2023-10-30T15:43:54.307Z</time>
      </trkpt>
      <trkpt lat="50.39376" lon="2.72122">
        <ele>90.4</ele>
        <time>2023-10-30T15:43:57.859Z</time>
      </trkpt>
      <trkpt lat="50.39383" lon="2.72131">
        <ele>90.4</ele>
        <time>2023-10-30T15:44:01.413Z</time>
      </trkpt>
      <trkpt lat="50.39383" lon="2.72144">
        <ele>90</ele>
        <time>2023-10-30T15:44:04.969Z</time>
      </trkpt>
      <trkpt lat="50.39383" lon="2.72185">
        <ele>90.4</ele>
        <time>2023-10-30T15:44:08.531Z</time>
      </trkpt>
      <trkpt lat="50.39383" lon="2.72214">
        <ele>90.8</ele>
        <time>2023-10-30T15:44:12.098Z</time>
      </trkpt>
      <trkpt lat="50.39383" lon="2.72242">
        <ele>91.4</ele>
        <time>2023-10-30T15:44:15.669Z</time>
      </trkpt>
      <trkpt lat="50.3938" lon="2.72298">
        <ele>92</ele>
        <time>2023-10-30T15:44:19.249Z</time>
      </trkpt>
      <trkpt lat="50.39376" lon="2.7234">
        <ele>91.6</ele>
        <time>2023-10-30T15:44:22.836Z</time>
      </trkpt>
      <trkpt lat="50.39374" lon="2.72347">
        <ele>92</ele>
        <time>2023-10-30T15:44:26.424Z</time>
      </trkpt>
      <trkpt lat="50.39364" lon="2.72408">
        <ele>93</ele>
        <time>2023-10-30T15:44:30.021Z</time>
      </trkpt>
      <trkpt lat="50.39351" lon="2.72475">
        <ele>92.8</ele>
        <time>2023-10-30T15:44:33.629Z</time>
      </trkpt>
      <trkpt lat="50.3934" lon="2.72534">
        <ele>92.4</ele>
        <time>2023-10-30T15:44:37.247Z</time>
      </trkpt>
      <trkpt lat="50.39332" lon="2.72596">
        <ele>89</ele>
        <time>2023-10-30T15:44:40.875Z</time>
      </trkpt>
      <trkpt lat="50.39323" lon="2.72663">
        <ele>86.2</ele>
        <time>2023-10-30T15:44:44.513Z</time>
      </trkpt>
      <trkpt lat="50.39322" lon="2.72701">
        <ele>85.8</ele>
        <time>2023-10-30T15:44:48.157Z</time>
      </trkpt>
      <trkpt lat="50.39322" lon="2.72728">
        <ele>85.2</ele>
        <time>2023-10-30T15:44:51.806Z</time>
      </trkpt>
      <trkpt lat="50.39325" lon="2.72754">
        <ele>84.4</ele>
        <time>2023-10-30T15:44:55.459Z</time>
      </trkpt>
      <trkpt lat="50.39328" lon="2.72779">
        <ele>83.8</ele>
        <time>2023-10-30T15:44:59.116Z</time>
      </trkpt>
      <trkpt lat="50.39334" lon="2.72818">
        <ele>84.4</ele>
        <time>2023-10-30T15:45:02.779Z</time>
      </trkpt>
      <trkpt lat="50.39337" lon="2.72832">
        <ele>85.2</ele>
        <time>2023-10-30T15:45:06.444Z</time>
      </trkpt>
      <trkpt lat="50.39348" lon="2.72864">
        <ele>86.2</ele>
        <time>2023-10-30T15:45:10.115Z</time>
      </trkpt>
      <trkpt lat="50.39352" lon="2.72876">
        <ele>86.6</ele>
        <time>2023-10-30T15:45:13.788Z</time>
      </trkpt>
      <trkpt lat="50.3937" lon="2.72927">
        <ele>87.6</ele>
        <time>2023-10-30T15:45:17.470Z</time>
      </trkpt>
      <trkpt lat="50.39376" lon="2.72946">
        <ele>88</ele>
        <time>2023-10-30T15:45:21.156Z</time>
      </trkpt>
      <trkpt lat="50.39382" lon="2.7297">
        <ele>88.6</ele>
        <time>2023-10-30T15:45:24.846Z</time>
      </trkpt>
      <trkpt lat="50.39384" lon="2.72976">
        <ele>88.8</ele>
        <time>2023-10-30T15:45:28.537Z</time>
      </trkpt>
      <trkpt lat="50.39388" lon="2.73011">
        <ele>89.4</ele>
        <time>2023-10-30T15:45:32.233Z</time>
      </trkpt>
      <trkpt lat="50.39391" lon="2.73039">
        <ele>90.6</ele>
        <time>2023-10-30T15:45:35.934Z</time>
      </trkpt>
      <trkpt lat="50.39395" lon="2.73066">
        <ele>91.8</ele>
        <time>2023-10-30T15:45:39.639Z</time>
      </trkpt>
      <trkpt lat="50.39399" lon="2.73101">
        <ele>92.4</ele>
        <time>2023-10-30T15:45:43.349Z</time>
      </trkpt>
      <trkpt lat="50.39406" lon="2.73132">
        <ele>93.2</ele>
        <time>2023-10-30T15:45:47.065Z</time>
      </trkpt>
      <trkpt lat="50.39417" lon="2.73151">
        <ele>94.8</ele>
        <time>2023-10-30T15:45:50.785Z</time>
      </trkpt>
      <trkpt lat="50.39435" lon="2.73177">
        <ele>99.4</ele>
        <time>2023-10-30T15:45:54.511Z</time>
      </trkpt>
      <trkpt lat="50.39451" lon="2.73204">
        <ele>103</ele>
        <time>2023-10-30T15:45:58.242Z</time>
      </trkpt>
      <trkpt lat="50.39459" lon="2.73216">
        <ele>103.8</ele>
        <time>2023-10-30T15:46:01.976Z</time>
      </trkpt>
      <trkpt lat="50.39465" lon="2.73226">
        <ele>104.4</ele>
        <time>2023-10-30T15:46:05.712Z</time>
      </trkpt>
      <trkpt lat="50.39475" lon="2.73243">
        <ele>104.8</ele>
        <time>2023-10-30T15:46:09.452Z</time>
      </trkpt>
      <trkpt lat="50.39479" lon="2.7325">
        <ele>104.6</ele>
        <time>2023-10-30T15:46:13.193Z</time>
      </trkpt>
      <trkpt lat="50.39483" lon="2.73257">
        <ele>104.4</ele>
        <time>2023-10-30T15:46:16.936Z</time>
      </trkpt>
      <trkpt lat="50.39492" lon="2.73271">
        <ele>104.2</ele>
        <time>2023-10-30T15:46:20.682Z</time>
      </trkpt>
      <trkpt lat="50.39503" lon="2.7329">
        <ele>104</ele>
        <time>2023-10-30T15:46:24.432Z</time>
      </trkpt>
      <trkpt lat="50.39516" lon="2.73309">
        <ele>104</ele>
        <time>2023-10-30T15:46:28.186Z</time>
      </trkpt>
      <trkpt lat="50.39536" lon="2.73332">
        <ele>104</ele>
        <time>2023-10-30T15:46:31.946Z</time>
      </trkpt>
      <trkpt lat="50.39561" lon="2.73362">
        <ele>103</ele>
        <time>2023-10-30T15:46:35.714Z</time>
      </trkpt>
      <trkpt lat="50.39592" lon="2.73401">
        <ele>100.4</ele>
        <time>2023-10-30T15:46:39.492Z</time>
      </trkpt>
      <trkpt lat="50.39622" lon="2.73441">
        <ele>98.4</ele>
        <time>2023-10-30T15:46:43.279Z</time>
      </trkpt>
      <trkpt lat="50.39645" lon="2.73469">
        <ele>97</ele>
        <time>2023-10-30T15:46:47.073Z</time>
      </trkpt>
      <trkpt lat="50.39653" lon="2.73477">
        <ele>96.4</ele>
        <time>2023-10-30T15:46:50.870Z</time>
      </trkpt>
      <trkpt lat="50.39666" lon="2.7349">
        <ele>96</ele>
        <time>2023-10-30T15:46:54.670Z</time>
      </trkpt>
      <trkpt lat="50.39691" lon="2.73514">
        <ele>96</ele>
        <time>2023-10-30T15:46:58.477Z</time>
      </trkpt>
      <trkpt lat="50.39695" lon="2.73519">
        <ele>96</ele>
        <time>2023-10-30T15:47:02.286Z</time>
      </trkpt>
      <trkpt lat="50.39695" lon="2.73519">
        <ele>96</ele>
        <time>2023-10-30T15:47:06.095Z</time>
      </trkpt>
      <trkpt lat="50.3972" lon="2.73543">
        <ele>96</ele>
        <time>2023-10-30T15:47:09.911Z</time>
      </trkpt>
      <trkpt lat="50.39726" lon="2.73557">
        <ele>96.2</ele>
        <time>2023-10-30T15:47:13.730Z</time>
      </trkpt>
      <trkpt lat="50.39731" lon="2.73573">
        <ele>96.4</ele>
        <time>2023-10-30T15:47:17.551Z</time>
      </trkpt>
      <trkpt lat="50.39735" lon="2.73588">
        <ele>96.6</ele>
        <time>2023-10-30T15:47:21.375Z</time>
      </trkpt>
      <trkpt lat="50.39747" lon="2.73633">
        <ele>97</ele>
        <time>2023-10-30T15:47:25.207Z</time>
      </trkpt>
      <trkpt lat="50.39757" lon="2.7366">
        <ele>98.2</ele>
        <time>2023-10-30T15:47:29.043Z</time>
      </trkpt>
      <trkpt lat="50.39767" lon="2.73684">
        <ele>99.8</ele>
        <time>2023-10-30T15:47:32.884Z</time>
      </trkpt>
      <trkpt lat="50.39772" lon="2.737">
        <ele>100.6</ele>
        <time>2023-10-30T15:47:36.728Z</time>
      </trkpt>
      <trkpt lat="50.39779" lon="2.73725">
        <ele>101.6</ele>
        <time>2023-10-30T15:47:40.576Z</time>
      </trkpt>
      <trkpt lat="50.39785" lon="2.73749">
        <ele>102.8</ele>
        <time>2023-10-30T15:47:44.428Z</time>
      </trkpt>
      <trkpt lat="50.39793" lon="2.7378">
        <ele>104</ele>
        <time>2023-10-30T15:47:48.285Z</time>
      </trkpt>
      <trkpt lat="50.39805" lon="2.73807">
        <ele>105.2</ele>
        <time>2023-10-30T15:47:52.147Z</time>
      </trkpt>
      <trkpt lat="50.3982" lon="2.73841">
        <ele>106.2</ele>
        <time>2023-10-30T15:47:56.016Z</time>
      </trkpt>
      <trkpt lat="50.39832" lon="2.73859">
        <ele>107</ele>
        <time>2023-10-30T15:47:59.889Z</time>
      </trkpt>
      <trkpt lat="50.39838" lon="2.73869">
        <ele>107.6</ele>
        <time>2023-10-30T15:48:03.764Z</time>
      </trkpt>
      <trkpt lat="50.39847" lon="2.73883">
        <ele>108.2</ele>
        <time>2023-10-30T15:48:07.642Z</time>
      </trkpt>
      <trkpt lat="50.39854" lon="2.73916">
        <ele>108</ele>
        <time>2023-10-30T15:48:11.526Z</time>
      </trkpt>
      <trkpt lat="50.39866" lon="2.73954">
        <ele>108.2</ele>
        <time>2023-10-30T15:48:15.416Z</time>
      </trkpt>
      <trkpt lat="50.39886" lon="2.73984">
        <ele>107.8</ele>
        <time>2023-10-30T15:48:19.313Z</time>
      </trkpt>
      <trkpt lat="50.39903" lon="2.74006">
        <ele>106.4</ele>
        <time>2023-10-30T15:48:23.215Z</time>
      </trkpt>
      <trkpt lat="50.39909" lon="2.74011">
        <ele>106</ele>
        <time>2023-10-30T15:48:27.119Z</time>
      </trkpt>
      <trkpt lat="50.39919" lon="2.7402">
        <ele>105.6</ele>
        <time>2023-10-30T15:48:31.026Z</time>
      </trkpt>
      <trkpt lat="50.39929" lon="2.74028">
        <ele>105.2</ele>
        <time>2023-10-30T15:48:34.935Z</time>
      </trkpt>
      <trkpt lat="50.39962" lon="2.74046">
        <ele>105</ele>
        <time>2023-10-30T15:48:38.853Z</time>
      </trkpt>
      <trkpt lat="50.39986" lon="2.74064">
        <ele>105.4</ele>
        <time>2023-10-30T15:48:42.777Z</time>
      </trkpt>
      <trkpt lat="50.40003" lon="2.74078">
        <ele>104.4</ele>
        <time>2023-10-30T15:48:46.706Z</time>
      </trkpt>
      <trkpt lat="50.40007" lon="2.74087">
        <ele>103.6</ele>
        <time>2023-10-30T15:48:50.637Z</time>
      </trkpt>
      <trkpt lat="50.4002" lon="2.74083">
        <ele>103</ele>
        <time>2023-10-30T15:48:54.571Z</time>
      </trkpt>
      <trkpt lat="50.40032" lon="2.74093">
        <ele>101.2</ele>
        <time>2023-10-30T15:48:58.508Z</time>
      </trkpt>
      <trkpt lat="50.40056" lon="2.74116">
        <ele>97.8</ele>
        <time>2023-10-30T15:49:02.452Z</time>
      </trkpt>
      <trkpt lat="50.40094" lon="2.74149">
        <ele>94.8</ele>
        <time>2023-10-30T15:49:06.407Z</time>
      </trkpt>
      <trkpt lat="50.40117" lon="2.74188">
        <ele>92.6</ele>
        <time>2023-10-30T15:49:10.370Z</time>
      </trkpt>
      <trkpt lat="50.40153" lon="2.74255">
        <ele>87.4</ele>
        <time>2023-10-30T15:49:14.347Z</time>
      </trkpt>
      <trkpt lat="50.4019" lon="2.74319">
        <ele>86.8</ele>
        <time>2023-10-30T15:49:18.337Z</time>
      </trkpt>
      <trkpt lat="50.40203" lon="2.74337">
        <ele>86.2</ele>
        <time>2023-10-30T15:49:22.332Z</time>
      </trkpt>
      <trkpt lat="50.40218" lon="2.74348">
        <ele>85.4</ele>
        <time>2023-10-30T15:49:26.331Z</time>
      </trkpt>
      <trkpt lat="50.40255" lon="2.74364">
        <ele>84.6</ele>
        <time>2023-10-30T15:49:30.339Z</time>
      </trkpt>
      <trkpt lat="50.40261" lon="2.74366">
        <ele>84.6</ele>
        <time>2023-10-30T15:49:34.348Z</time>
      </trkpt>
      <trkpt lat="50.40264" lon="2.74368">
        <ele>84.6</ele>
        <time>2023-10-30T15:49:38.358Z</time>
      </trkpt>
      <trkpt lat="50.40252" lon="2.74376">
        <ele>84</ele>
        <time>2023-10-30T15:49:42.371Z</time>
      </trkpt>
      <trkpt lat="50.40231" lon="2.74414">
        <ele>84</ele>
        <time>2023-10-30T15:49:46.392Z</time>
      </trkpt>
      <trkpt lat="50.40224" lon="2.74428">
        <ele>84</ele>
        <time>2023-10-30T15:49:50.416Z</time>
      </trkpt>
      <trkpt lat="50.40221" lon="2.74449">
        <ele>84</ele>
        <time>2023-10-30T15:49:54.443Z</time>
      </trkpt>
      <trkpt lat="50.40221" lon="2.74467">
        <ele>84</ele>
        <time>2023-10-30T15:49:58.473Z</time>
      </trkpt>
      <trkpt lat="50.40221" lon="2.74485">
        <ele>83.8</ele>
        <time>2023-10-30T15:50:02.506Z</time>
      </trkpt>
      <trkpt lat="50.4022" lon="2.74541">
        <ele>83</ele>
        <time>2023-10-30T15:50:06.548Z</time>
      </trkpt>
      <trkpt lat="50.4022" lon="2.74558">
        <ele>83</ele>
        <time>2023-10-30T15:50:10.592Z</time>
      </trkpt>
      <trkpt lat="50.40219" lon="2.74574">
        <ele>83.4</ele>
        <time>2023-10-30T15:50:14.639Z</time>
      </trkpt>
      <trkpt lat="50.40219" lon="2.74581">
        <ele>83.6</ele>
        <time>2023-10-30T15:50:18.687Z</time>
      </trkpt>
      <trkpt lat="50.40218" lon="2.74589">
        <ele>84</ele>
        <time>2023-10-30T15:50:22.736Z</time>
      </trkpt>
      <trkpt lat="50.40216" lon="2.74603">
        <ele>83.8</ele>
        <time>2023-10-30T15:50:26.787Z</time>
      </trkpt>
      <trkpt lat="50.40217" lon="2.7461">
        <ele>84</ele>
        <time>2023-10-30T15:50:30.840Z</time>
      </trkpt>
      <trkpt lat="50.40218" lon="2.74617">
        <ele>84</ele>
        <time>2023-10-30T15:50:34.894Z</time>
      </trkpt>
      <trkpt lat="50.40218" lon="2.74624">
        <ele>84</ele>
        <time>2023-10-30T15:50:38.949Z</time>
      </trkpt>
      <trkpt lat="50.40221" lon="2.74637">
        <ele>84</ele>
        <time>2023-10-30T15:50:43.006Z</time>
      </trkpt>
      <trkpt lat="50.40198" lon="2.74679">
        <ele>82.8</ele>
        <time>2023-10-30T15:50:47.072Z</time>
      </trkpt>
      <trkpt lat="50.40187" lon="2.74697">
        <ele>83.2</ele>
        <time>2023-10-30T15:50:51.141Z</time>
      </trkpt>
      <trkpt lat="50.40177" lon="2.74716">
        <ele>83</ele>
        <time>2023-10-30T15:50:55.214Z</time>
      </trkpt>
      <trkpt lat="50.40144" lon="2.74773">
        <ele>82.8</ele>
        <time>2023-10-30T15:50:59.299Z</time>
      </trkpt>
      <trkpt lat="50.40104" lon="2.74835">
        <ele>82.2</ele>
        <time>2023-10-30T15:51:03.398Z</time>
      </trkpt>
      <trkpt lat="50.40072" lon="2.74885">
        <ele>81.8</ele>
        <time>2023-10-30T15:51:07.508Z</time>
      </trkpt>
      <trkpt lat="50.40049" lon="2.74926">
        <ele>83</ele>
        <time>2023-10-30T15:51:11.627Z</time>
      </trkpt>
      <trkpt lat="50.40011" lon="2.74981">
        <ele>82</ele>
        <time>2023-10-30T15:51:15.758Z</time>
      </trkpt>
      <trkpt lat="50.39979" lon="2.7503">
        <ele>81</ele>
        <time>2023-10-30T15:51:19.900Z</time>
      </trkpt>
      <trkpt lat="50.39949" lon="2.75067">
        <ele>80</ele>
        <time>2023-10-30T15:51:24.052Z</time>
      </trkpt>
      <trkpt lat="50.39907" lon="2.75115">
        <ele>77.6</ele>
        <time>2023-10-30T15:51:28.216Z</time>
      </trkpt>
      <trkpt lat="50.3987" lon="2.75144">
        <ele>74.8</ele>
        <time>2023-10-30T15:51:32.390Z</time>
      </trkpt>
      <trkpt lat="50.39849" lon="2.75157">
        <ele>73</ele>
        <time>2023-10-30T15:51:36.570Z</time>
      </trkpt>
      <trkpt lat="50.39842" lon="2.75164">
        <ele>72.2</ele>
        <time>2023-10-30T15:51:40.752Z</time>
      </trkpt>
      <trkpt lat="50.39845" lon="2.75171">
        <ele>72.6</ele>
        <time>2023-10-30T15:51:44.935Z</time>
      </trkpt>
      <trkpt lat="50.3985" lon="2.75187">
        <ele>73.6</ele>
        <time>2023-10-30T15:51:49.121Z</time>
      </trkpt>
      <trkpt lat="50.39869" lon="2.75211">
        <ele>75.8</ele>
        <time>2023-10-30T15:51:53.313Z</time>
      </trkpt>
      <trkpt lat="50.39892" lon="2.75242">
        <ele>75.6</ele>
        <time>2023-10-30T15:51:57.512Z</time>
      </trkpt>
      <trkpt lat="50.39903" lon="2.75255">
        <ele>74</ele>
        <time>2023-10-30T15:52:01.714Z</time>
      </trkpt>
      <trkpt lat="50.39906" lon="2.75259">
        <ele>73.4</ele>
        <time>2023-10-30T15:52:05.917Z</time>
      </trkpt>
      <trkpt lat="50.39912" lon="2.75267">
        <ele>72.4</ele>
        <time>2023-10-30T15:52:10.122Z</time>
      </trkpt>
      <trkpt lat="50.39921" lon="2.75265">
        <ele>72.4</ele>
        <time>2023-10-30T15:52:14.330Z</time>
      </trkpt>
      <trkpt lat="50.39924" lon="2.75261">
        <ele>72.6</ele>
        <time>2023-10-30T15:52:18.539Z</time>
      </trkpt>
      <trkpt lat="50.39929" lon="2.75251">
        <ele>72.8</ele>
        <time>2023-10-30T15:52:22.750Z</time>
      </trkpt>
      <trkpt lat="50.39932" lon="2.75246">
        <ele>73.2</ele>
        <time>2023-10-30T15:52:26.962Z</time>
      </trkpt>
      <trkpt lat="50.39944" lon="2.75226">
        <ele>74.2</ele>
        <time>2023-10-30T15:52:31.178Z</time>
      </trkpt>
      <trkpt lat="50.39946" lon="2.75222">
        <ele>74.4</ele>
        <time>2023-10-30T15:52:35.395Z</time>
      </trkpt>
      <trkpt lat="50.3995" lon="2.75215">
        <ele>74.8</ele>
        <time>2023-10-30T15:52:39.613Z</time>
      </trkpt>
      <trkpt lat="50.39954" lon="2.75208">
        <ele>75</ele>
        <time>2023-10-30T15:52:43.833Z</time>
      </trkpt>
      <trkpt lat="50.39959" lon="2.752">
        <ele>75.6</ele>
        <time>2023-10-30T15:52:48.054Z</time>
      </trkpt>
      <trkpt lat="50.3997" lon="2.7518">
        <ele>75.8</ele>
        <time>2023-10-30T15:52:52.280Z</time>
      </trkpt>
      <trkpt lat="50.39985" lon="2.75154">
        <ele>79.6</ele>
        <time>2023-10-30T15:52:56.511Z</time>
      </trkpt>
      <trkpt lat="50.39996" lon="2.75135">
        <ele>81</ele>
        <time>2023-10-30T15:53:00.746Z</time>
      </trkpt>
      <trkpt lat="50.40001" lon="2.75125">
        <ele>81.4</ele>
        <time>2023-10-30T15:53:04.983Z</time>
      </trkpt>
      <trkpt lat="50.40018" lon="2.75095">
        <ele>83.6</ele>
        <time>2023-10-30T15:53:09.226Z</time>
      </trkpt>
      <trkpt lat="50.40038" lon="2.75066">
        <ele>85.4</ele>
        <time>2023-10-30T15:53:13.476Z</time>
      </trkpt>
      <trkpt lat="50.40048" lon="2.75053">
        <ele>86.2</ele>
        <time>2023-10-30T15:53:17.729Z</time>
      </trkpt>
      <trkpt lat="50.4006" lon="2.75035">
        <ele>86.6</ele>
        <time>2023-10-30T15:53:21.986Z</time>
      </trkpt>
      <trkpt lat="50.40086" lon="2.74998">
        <ele>86</ele>
        <time>2023-10-30T15:53:26.252Z</time>
      </trkpt>
      <trkpt lat="50.40115" lon="2.74955">
        <ele>85.2</ele>
        <time>2023-10-30T15:53:30.527Z</time>
      </trkpt>
      <trkpt lat="50.40135" lon="2.74927">
        <ele>85</ele>
        <time>2023-10-30T15:53:34.809Z</time>
      </trkpt>
      <trkpt lat="50.40154" lon="2.74898">
        <ele>84.6</ele>
        <time>2023-10-30T15:53:39.097Z</time>
      </trkpt>
      <trkpt lat="50.40166" lon="2.74879">
        <ele>84</ele>
        <time>2023-10-30T15:53:43.390Z</time>
      </trkpt>
      <trkpt lat="50.40173" lon="2.7487">
        <ele>83.6</ele>
        <time>2023-10-30T15:53:47.685Z</time>
      </trkpt>
      <trkpt lat="50.40198" lon="2.74832">
        <ele>81.4</ele>
        <time>2023-10-30T15:53:51.988Z</time>
      </trkpt>
      <trkpt lat="50.40229" lon="2.74785">
        <ele>80</ele>
        <time>2023-10-30T15:53:56.302Z</time>
      </trkpt>
      <trkpt lat="50.40258" lon="2.74742">
        <ele>81</ele>
        <time>2023-10-30T15:54:00.626Z</time>
      </trkpt>
      <trkpt lat="50.40283" lon="2.74704">
        <ele>82</ele>
        <time>2023-10-30T15:54:04.958Z</time>
      </trkpt>
      <trkpt lat="50.40286" lon="2.74699">
        <ele>82</ele>
        <time>2023-10-30T15:54:09.291Z</time>
      </trkpt>
      <trkpt lat="50.40294" lon="2.74688">
        <ele>81.8</ele>
        <time>2023-10-30T15:54:13.627Z</time>
      </trkpt>
      <trkpt lat="50.40309" lon="2.74665">
        <ele>81</ele>
        <time>2023-10-30T15:54:17.968Z</time>
      </trkpt>
      <trkpt lat="50.40341" lon="2.74625">
        <ele>79.6</ele>
        <time>2023-10-30T15:54:22.319Z</time>
      </trkpt>
      <trkpt lat="50.40383" lon="2.74567">
        <ele>78.8</ele>
        <time>2023-10-30T15:54:26.684Z</time>
      </trkpt>
      <trkpt lat="50.40388" lon="2.7456">
        <ele>79.2</ele>
        <time>2023-10-30T15:54:31.050Z</time>
      </trkpt>
      <trkpt lat="50.404" lon="2.74551">
        <ele>79.8</ele>
        <time>2023-10-30T15:54:35.419Z</time>
      </trkpt>
      <trkpt lat="50.40406" lon="2.7455">
        <ele>80</ele>
        <time>2023-10-30T15:54:39.790Z</time>
      </trkpt>
      <trkpt lat="50.40424" lon="2.7455">
        <ele>79.6</ele>
        <time>2023-10-30T15:54:44.165Z</time>
      </trkpt>
      <trkpt lat="50.40435" lon="2.7455">
        <ele>79.2</ele>
        <time>2023-10-30T15:54:48.543Z</time>
      </trkpt>
      <trkpt lat="50.40489" lon="2.74551">
        <ele>77.8</ele>
        <time>2023-10-30T15:54:52.934Z</time>
      </trkpt>
      <trkpt lat="50.40498" lon="2.7455">
        <ele>77.4</ele>
        <time>2023-10-30T15:54:57.327Z</time>
      </trkpt>
      <trkpt lat="50.40505" lon="2.74548">
        <ele>77.6</ele>
        <time>2023-10-30T15:55:01.722Z</time>
      </trkpt>
      <trkpt lat="50.40506" lon="2.74557">
        <ele>77.2</ele>
        <time>2023-10-30T15:55:06.118Z</time>
      </trkpt>
      <trkpt lat="50.40507" lon="2.74564">
        <ele>77</ele>
        <time>2023-10-30T15:55:10.516Z</time>
      </trkpt>
      <trkpt lat="50.40509" lon="2.74571">
        <ele>77</ele>
        <time>2023-10-30T15:55:14.915Z</time>
      </trkpt>
      <trkpt lat="50.40513" lon="2.74579">
        <ele>77</ele>
        <time>2023-10-30T15:55:19.315Z</time>
      </trkpt>
      <trkpt lat="50.40525" lon="2.74601">
        <ele>77</ele>
        <time>2023-10-30T15:55:23.720Z</time>
      </trkpt>
      <trkpt lat="50.40536" lon="2.74618">
        <ele>77</ele>
        <time>2023-10-30T15:55:28.129Z</time>
      </trkpt>
      <trkpt lat="50.40539" lon="2.74622">
        <ele>76.8</ele>
        <time>2023-10-30T15:55:32.539Z</time>
      </trkpt>
      <trkpt lat="50.40556" lon="2.74644">
        <ele>76</ele>
        <time>2023-10-30T15:55:36.954Z</time>
      </trkpt>
      <trkpt lat="50.40577" lon="2.74673">
        <ele>76</ele>
        <time>2023-10-30T15:55:41.376Z</time>
      </trkpt>
      <trkpt lat="50.40593" lon="2.74696">
        <ele>76.4</ele>
        <time>2023-10-30T15:55:45.803Z</time>
      </trkpt>
      <trkpt lat="50.40599" lon="2.74705">
        <ele>76.6</ele>
        <time>2023-10-30T15:55:50.232Z</time>
      </trkpt>
      <trkpt lat="50.40612" lon="2.74725">
        <ele>76.8</ele>
        <time>2023-10-30T15:55:54.666Z</time>
      </trkpt>
      <trkpt lat="50.4064" lon="2.74766">
        <ele>74.8</ele>
        <time>2023-10-30T15:55:59.109Z</time>
      </trkpt>
      <trkpt lat="50.40678" lon="2.74827">
        <ele>73</ele>
        <time>2023-10-30T15:56:03.565Z</time>
      </trkpt>
      <trkpt lat="50.40706" lon="2.74876">
        <ele>70.4</ele>
        <time>2023-10-30T15:56:08.032Z</time>
      </trkpt>
      <trkpt lat="50.40726" lon="2.74918">
        <ele>69.4</ele>
        <time>2023-10-30T15:56:12.507Z</time>
      </trkpt>
      <trkpt lat="50.40752" lon="2.7497">
        <ele>71.4</ele>
        <time>2023-10-30T15:56:16.992Z</time>
      </trkpt>
      <trkpt lat="50.40777" lon="2.75008">
        <ele>72</ele>
        <time>2023-10-30T15:56:21.485Z</time>
      </trkpt>
      <trkpt lat="50.40781" lon="2.75013">
        <ele>71.8</ele>
        <time>2023-10-30T15:56:25.980Z</time>
      </trkpt>
      <trkpt lat="50.40794" lon="2.75025">
        <ele>71.4</ele>
        <time>2023-10-30T15:56:30.478Z</time>
      </trkpt>
      <trkpt lat="50.40799" lon="2.75029">
        <ele>71.2</ele>
        <time>2023-10-30T15:56:34.978Z</time>
      </trkpt>
      <trkpt lat="50.40832" lon="2.75057">
        <ele>70.2</ele>
        <time>2023-10-30T15:56:39.487Z</time>
      </trkpt>
      <trkpt lat="50.40865" lon="2.75086">
        <ele>72.2</ele>
        <time>2023-10-30T15:56:44.005Z</time>
      </trkpt>
      <trkpt lat="50.40898" lon="2.7511">
        <ele>73</ele>
        <time>2023-10-30T15:56:48.532Z</time>
      </trkpt>
      <trkpt lat="50.40913" lon="2.75121">
        <ele>73</ele>
        <time>2023-10-30T15:56:53.063Z</time>
      </trkpt>
      <trkpt lat="50.4092" lon="2.75126">
        <ele>73</ele>
        <time>2023-10-30T15:56:57.596Z</time>
      </trkpt>
      <trkpt lat="50.40939" lon="2.75139">
        <ele>73.2</ele>
        <time>2023-10-30T15:57:02.134Z</time>
      </trkpt>
      <trkpt lat="50.40947" lon="2.75145">
        <ele>73.4</ele>
        <time>2023-10-30T15:57:06.674Z</time>
      </trkpt>
      <trkpt lat="50.40971" lon="2.75161">
        <ele>75</ele>
        <time>2023-10-30T15:57:11.221Z</time>
      </trkpt>
      <trkpt lat="50.41" lon="2.75182">
        <ele>75</ele>
        <time>2023-10-30T15:57:15.775Z</time>
      </trkpt>
      <trkpt lat="50.41014" lon="2.75191">
        <ele>74.4</ele>
        <time>2023-10-30T15:57:20.333Z</time>
      </trkpt>
      <trkpt lat="50.41021" lon="2.75197">
        <ele>74.2</ele>
        <time>2023-10-30T15:57:24.893Z</time>
      </trkpt>
      <trkpt lat="50.4103" lon="2.75204">
        <ele>74</ele>
        <time>2023-10-30T15:57:29.456Z</time>
      </trkpt>
      <trkpt lat="50.41036" lon="2.75208">
        <ele>73.8</ele>
        <time>2023-10-30T15:57:34.020Z</time>
      </trkpt>
    </trkseg>
  </trk>
</gpx>